NOAA Web Site Link Tides and Currents Home Page Transparent placeholder image

On Saturday, June 23rd, 2018 starting at 7:30 a.m to 8 p.m. EDT, there will be a system maintenance performed affecting the Tides and Currents web site (https://tidesandcurrents.noaa.gov). During this time, the Tides and Currents website will be running with limited capabilities. Click here for more information.

PORTS® Data Listing: 8638901 CBBT, Chesapeake Channel, VA

CO-OPS RAW PORTS DATA

************************      PRELIMINARY DATA      ************************** 

     THIS RAW DATA HAS NOT BEEN SUBJECT TO THE NATIONAL OCEAN SERVICE'S        
     QUALITY CONTROL OR QUALITY ASSURANCE PROCEDURES AND DOES NOT MEET         
     THE CRITERIA AND STANDARDS OF OFFICIAL NATIONAL OCEAN SERVICE             
     DATA.  IT IS RELEASED FOR LIMITED PUBLIC USE AS PRELIMINARY DATA TO       
     BE USED ONLY WITH APPROPRIATE CAUTION.                                    

************************      PRELIMINARY DATA      ************************** 


       CD   -   Calendar date
       T    -   Time
       TZ   -   Timezone
       PW   -   Predicted water level (feet above MLLW)
       OW   -   Observed water level (feet above MLLW)
       WS   -   Wind speed (knots)
       WD   -   Wind direction (degrees true)
       WG   -   Wind gust (knots)
       AT   -   Air temperature (degrees farenheit)
       WT   -   Water temperature (degrees farenheit)
       AP   -   Air pressure (millibars)
       SA   -   Salinty (PSU - Practical Salinity Units)
       SG   -   Specific gravity
       RH   -   Relative humidity
       AG   -   Air gap (feet)
       VI   -   Visibility (nautical miles)

       ** NOTE **
       A variable that has its data fields filled with "9"s, indicates that
       data was not collected for that sample period.
       **********

NOTICE OF PROVISIONAL DATUM
These datums and any data referred to said datum are PROVISIONAL and
subject to revision until they have been thoroughly reviewed and received final
approval.  Subsequent review based on field inspections and additional
measurements may result in revisions to the data and datums.  Data users are
cautioned to consider the conditional nature of this information before using
it for critical decisions such as those that concern physical or public safety.
Only after meeting all standards for quality control assurance will the datums
be classified as Accepted Datums.

STATION NAME: CBBT, Chesapeake Channel (8638901)
****************************************************************************************************
    CD       T    TZ    PW     OW    WS   WD   WG    AT    WT    AP    SA    SG     RH    AG   VI
****************************************************************************************************
2018/06/18 15:36 EDT    1.86   2.43    5   86    7  79.5 -99.9 1015.2 -9.9 -9.999 -99.9 -99.99 -9.99
2018/06/18 15:42 EDT    1.79   2.38    6   82    7  79.5 -99.9 1015.2 -9.9 -9.999 -99.9 -99.99 -9.99
2018/06/18 15:48 EDT    1.72   2.26    7   64    7  78.8 -99.9 1015.1 -9.9 -9.999 -99.9 -99.99 -9.99
2018/06/18 15:54 EDT    1.65   2.23    6   90    8  78.8 -99.9 1015.1 -9.9 -9.999 -99.9 -99.99 -9.99
2018/06/18 16:00 EDT    1.58   2.13    4   97    8  79.3 -99.9 1015.1 -9.9 -9.999 -99.9 -99.99 -9.99
2018/06/18 16:06 EDT    1.50   2.04    4   98    6  79.7 -99.9 1015.0 -9.9 -9.999 -99.9 -99.99 -9.99
2018/06/18 16:12 EDT    1.43   1.93    5  113    5  79.9 -99.9 1014.9 -9.9 -9.999 -99.9 -99.99 -9.99
2018/06/18 16:18 EDT    1.35   1.86    5  117    6  79.7 -99.9 1014.9 -9.9 -9.999 -99.9 -99.99 -9.99
2018/06/18 16:24 EDT    1.28   1.78    4  116    7  79.5 -99.9 1014.9 -9.9 -9.999 -99.9 -99.99 -9.99
2018/06/18 16:30 EDT    1.20   1.69    5  122    5  79.5 -99.9 1015.0 -9.9 -9.999 -99.9 -99.99 -9.99
2018/06/18 16:36 EDT    1.13   1.62    5  121    6  79.5 -99.9 1014.9 -9.9 -9.999 -99.9 -99.99 -9.99
2018/06/18 16:42 EDT    1.05   1.56    6  130    7  79.2 -99.9 1014.9 -9.9 -9.999 -99.9 -99.99 -9.99
2018/06/18 16:48 EDT    0.98   1.49    5  141    7  79.2 -99.9 1014.9 -9.9 -9.999 -99.9 -99.99 -9.99
2018/06/18 16:54 EDT    0.91   1.42    5  125    6  79.3 -99.9 1014.8 -9.9 -9.999 -99.9 -99.99 -9.99
2018/06/18 17:00 EDT    0.84   1.35    5  115    6  79.7 -99.9 1014.7 -9.9 -9.999 -99.9 -99.99 -9.99
2018/06/18 17:06 EDT    0.77   1.28    5  118    6  79.7 -99.9 1014.5 -9.9 -9.999 -99.9 -99.99 -9.99
2018/06/18 17:12 EDT    0.71   1.23    4  106    6  79.9 -99.9 1014.4 -9.9 -9.999 -99.9 -99.99 -9.99
2018/06/18 17:18 EDT    0.65   1.10    5  115    6  80.1 -99.9 1014.3 -9.9 -9.999 -99.9 -99.99 -9.99
2018/06/18 17:24 EDT    0.59   1.09    5  117    6  79.9 -99.9 1014.2 -9.9 -9.999 -99.9 -99.99 -9.99
2018/06/18 17:30 EDT    0.53   1.02    5  127    6  79.9 -99.9 1014.1 -9.9 -9.999 -99.9 -99.99 -9.99
2018/06/18 17:36 EDT    0.47   0.97    5  130    7  79.9 -99.9 1014.1 -9.9 -9.999 -99.9 -99.99 -9.99
2018/06/18 17:42 EDT    0.42   0.93    6  135    7  79.9 -99.9 1014.1 -9.9 -9.999 -99.9 -99.99 -9.99
2018/06/18 17:48 EDT    0.37   0.89    6  137    7  80.1 -99.9 1014.1 -9.9 -9.999 -99.9 -99.99 -9.99
2018/06/18 17:54 EDT    0.32   0.86    5  135    7  80.2 -99.9 1014.0 -9.9 -9.999 -99.9 -99.99 -9.99
2018/06/18 18:00 EDT    0.28   0.81    6  136    7  80.2 -99.9 1014.0 -9.9 -9.999 -99.9 -99.99 -9.99
2018/06/18 18:06 EDT    0.24   0.79    6  136    7  80.2 -99.9 1013.9 -9.9 -9.999 -99.9 -99.99 -9.99
2018/06/18 18:12 EDT    0.20   0.76    5  149    7  80.1 -99.9 1013.9 -9.9 -9.999 -99.9 -99.99 -9.99
2018/06/18 18:18 EDT    0.17   0.74    6  152    8  80.1 -99.9 1013.9 -9.9 -9.999 -99.9 -99.99 -9.99
2018/06/18 18:24 EDT    0.14   0.71    7  150    8  79.7 -99.9 1013.8 -9.9 -9.999 -99.9 -99.99 -9.99
2018/06/18 18:30 EDT    0.11   0.68    7  153    8  79.7 -99.9 1013.8 -9.9 -9.999 -99.9 -99.99 -9.99
2018/06/18 18:36 EDT    0.09   0.66    6  157    8  79.5 -99.9 1013.8 -9.9 -9.999 -99.9 -99.99 -9.99
2018/06/18 18:42 EDT    0.07   0.64    7  149    8  79.7 -99.9 1013.6 -9.9 -9.999 -99.9 -99.99 -9.99
2018/06/18 18:48 EDT    0.05   0.62    6  144    8  80.1 -99.9 1013.6 -9.9 -9.999 -99.9 -99.99 -9.99
2018/06/18 18:54 EDT    0.04   0.60    7  148    8  79.9 -99.9 1013.6 -9.9 -9.999 -99.9 -99.99 -9.99
2018/06/18 19:00 EDT    0.03   0.58    6  153    8  79.7 -99.9 1013.5 -9.9 -9.999 -99.9 -99.99 -9.99
2018/06/18 19:06 EDT    0.03   0.57    6  161    8  79.7 -99.9 1013.5 -9.9 -9.999 -99.9 -99.99 -9.99
2018/06/18 19:12 EDT    0.03   0.57    5  160    7  79.7 -99.9 1013.4 -9.9 -9.999 -99.9 -99.99 -9.99
2018/06/18 19:18 EDT    0.03   0.59    6  160    7  79.9 -99.9 1013.3 -9.9 -9.999 -99.9 -99.99 -9.99
2018/06/18 19:24 EDT    0.03   0.57    5  160    7  79.9 -99.9 1013.2 -9.9 -9.999 -99.9 -99.99 -9.99
2018/06/18 19:30 EDT    0.04   0.57    7  167    8  79.9 -99.9 1013.2 -9.9 -9.999 -99.9 -99.99 -9.99
2018/06/18 19:36 EDT    0.06   0.58    7  157    8  79.7 -99.9 1013.0 -9.9 -9.999 -99.9 -99.99 -9.99
2018/06/18 19:42 EDT    0.07   0.58    6  158    8  79.7 -99.9 1013.0 -9.9 -9.999 -99.9 -99.99 -9.99
2018/06/18 19:48 EDT    0.09   0.62    6  154    7  79.7 -99.9 1012.9 -9.9 -9.999 -99.9 -99.99 -9.99
2018/06/18 19:54 EDT    0.12   0.65    6  145    7  79.5 -99.9 1012.9 -9.9 -9.999 -99.9 -99.99 -9.99
2018/06/18 20:00 EDT    0.14   0.68    7  148    8  79.2 -99.9 1012.8 -9.9 -9.999 -99.9 -99.99 -9.99
2018/06/18 20:06 EDT    0.17   0.70    7  156    8  78.8 -99.9 1012.7 -9.9 -9.999 -99.9 -99.99 -9.99
2018/06/18 20:12 EDT    0.21   0.76    8  155   10  78.4 -99.9 1012.6 -9.9 -9.999 -99.9 -99.99 -9.99
2018/06/18 20:18 EDT    0.24   0.78    8  163   10  78.4 -99.9 1012.7 -9.9 -9.999 -99.9 -99.99 -9.99
2018/06/18 20:24 EDT    0.29   0.88    9  156   10  78.3 -99.9 1012.7 -9.9 -9.999 -99.9 -99.99 -9.99
2018/06/18 20:30 EDT    0.33   0.92    8  162   10  78.4 -99.9 1012.7 -9.9 -9.999 -99.9 -99.99 -9.99
2018/06/18 20:36 EDT    0.38   0.93    7  169   10  78.6 -99.9 1012.7 -9.9 -9.999 -99.9 -99.99 -9.99
2018/06/18 20:42 EDT    0.42   0.99    8  178   10  78.4 -99.9 1012.6 -9.9 -9.999 -99.9 -99.99 -9.99
2018/06/18 20:48 EDT    0.48   1.08    7  176    9  78.6 -99.9 1012.6 -9.9 -9.999 -99.9 -99.99 -9.99
2018/06/18 20:54 EDT    0.53   1.11    6  177    8  78.8 -99.9 1012.7 -9.9 -9.999 -99.9 -99.99 -9.99
2018/06/18 21:00 EDT    0.59   1.17    6  182    8  78.8 -99.9 1012.7 -9.9 -9.999 -99.9 -99.99 -9.99
2018/06/18 21:06 EDT    0.65   1.23    7  175    8  78.8 -99.9 1012.7 -9.9 -9.999 -99.9 -99.99 -9.99
2018/06/18 21:12 EDT    0.71   1.30    7  182    9  78.6 -99.9 1012.6 -9.9 -9.999 -99.9 -99.99 -9.99
2018/06/18 21:18 EDT    0.78   1.33    9  180   10  78.6 -99.9 1012.6 -9.9 -9.999 -99.9 -99.99 -9.99
2018/06/18 21:24 EDT    0.84   1.40    8  189   10  78.8 -99.9 1012.7 -9.9 -9.999 -99.9 -99.99 -9.99
2018/06/18 21:30 EDT    0.91   1.51    7  187   10  79.0 -99.9 1012.8 -9.9 -9.999 -99.9 -99.99 -9.99
2018/06/18 21:36 EDT    0.98   1.58    8  182    9  79.0 -99.9 1012.7 -9.9 -9.999 -99.9 -99.99 -9.99
2018/06/18 21:42 EDT    1.06   1.67    8  181   10  79.0 -99.9 1012.8 -9.9 -9.999 -99.9 -99.99 -9.99
2018/06/18 21:48 EDT    1.13   1.75    7  183    9  79.2 -99.9 1012.8 -9.9 -9.999 -99.9 -99.99 -9.99
2018/06/18 21:54 EDT    1.20   1.80    7  184    8  79.2 -99.9 1012.8 -9.9 -9.999 -99.9 -99.99 -9.99
2018/06/18 22:00 EDT    1.28   1.89    7  179    8  79.0 -99.9 1012.7 -9.9 -9.999 -99.9 -99.99 -9.99
2018/06/18 22:06 EDT    1.35   1.98    7  183    8  79.0 -99.9 1012.7 -9.9 -9.999 -99.9 -99.99 -9.99
2018/06/18 22:12 EDT    1.43   2.06    8  190    9  79.2 -99.9 1012.8 -9.9 -9.999 -99.9 -99.99 -9.99
2018/06/18 22:18 EDT    1.51   2.15    7  183    9  79.2 -99.9 1012.8 -9.9 -9.999 -99.9 -99.99 -9.99
2018/06/18 22:24 EDT    1.59   2.24    7  179    8  79.2 -99.9 1012.8 -9.9 -9.999 -99.9 -99.99 -9.99
2018/06/18 22:30 EDT    1.66   2.34    6  181    8  79.0 -99.9 1012.9 -9.9 -9.999 -99.9 -99.99 -9.99
2018/06/18 22:36 EDT    1.74   2.43    6  189    7  78.8 -99.9 1013.0 -9.9 -9.999 -99.9 -99.99 -9.99
2018/06/18 22:42 EDT    1.82   2.53    5  190    6  78.8 -99.9 1013.0 -9.9 -9.999 -99.9 -99.99 -9.99
2018/06/18 22:48 EDT    1.89   2.61    6  189    7  78.8 -99.9 1013.0 -9.9 -9.999 -99.9 -99.99 -9.99
2018/06/18 22:54 EDT    1.97   2.66    5  190    7  78.8 -99.9 1013.0 -9.9 -9.999 -99.9 -99.99 -9.99
2018/06/18 23:00 EDT    2.04   2.73    6  194    7  78.8 -99.9 1012.9 -9.9 -9.999 -99.9 -99.99 -9.99
2018/06/18 23:06 EDT    2.11   2.77    6  200    8  78.8 -99.9 1013.0 -9.9 -9.999 -99.9 -99.99 -9.99
2018/06/18 23:12 EDT    2.18   2.85    7  197    8  78.8 -99.9 1013.0 -9.9 -9.999 -99.9 -99.99 -9.99
2018/06/18 23:18 EDT    2.25   2.91    7  202    8  79.0 -99.9 1013.1 -9.9 -9.999 -99.9 -99.99 -9.99
2018/06/18 23:24 EDT    2.32   2.98    7  203    8  78.8 -99.9 1013.1 -9.9 -9.999 -99.9 -99.99 -9.99
2018/06/18 23:30 EDT    2.38   3.05    8  202    9  78.8 -99.9 1013.1 -9.9 -9.999 -99.9 -99.99 -9.99
2018/06/18 23:36 EDT    2.44   3.06    8  200    9  78.8 -99.9 1013.0 -9.9 -9.999 -99.9 -99.99 -9.99
2018/06/18 23:42 EDT    2.50   3.12    7  205    9  78.8 -99.9 1013.0 -9.9 -9.999 -99.9 -99.99 -9.99
2018/06/18 23:48 EDT    2.56   3.15    7  209    8  78.6 -99.9 1012.9 -9.9 -9.999 -99.9 -99.99 -9.99
2018/06/18 23:54 EDT    2.61   3.19    6  208    8  78.6 -99.9 1012.9 -9.9 -9.999 -99.9 -99.99 -9.99
2018/06/19 00:00 EDT    2.66   3.23    7  210    8  78.6 -99.9 1012.8 -9.9 -9.999 -99.9 -99.99 -9.99
2018/06/19 00:06 EDT    2.71   3.27    6  216    7  78.6 -99.9 1012.8 -9.9 -9.999 -99.9 -99.99 -9.99
2018/06/19 00:12 EDT    2.75   3.33    6  212    8  78.6 -99.9 1012.7 -9.9 -9.999 -99.9 -99.99 -9.99
2018/06/19 00:18 EDT    2.79   3.36    6  212    7  78.6 -99.9 1012.6 -9.9 -9.999 -99.9 -99.99 -9.99
2018/06/19 00:24 EDT    2.83   3.42    5  222    7  78.8 -99.9 1012.5 -9.9 -9.999 -99.9 -99.99 -9.99
2018/06/19 00:30 EDT    2.86   3.45    5  219    7  78.8 -99.9 1012.4 -9.9 -9.999 -99.9 -99.99 -9.99
2018/06/19 00:36 EDT    2.89   3.47    6  218    8  78.6 -99.9 1012.3 -9.9 -9.999 -99.9 -99.99 -9.99
2018/06/19 00:42 EDT    2.91   3.48    6  218    8  78.8 -99.9 1012.2 -9.9 -9.999 -99.9 -99.99 -9.99
2018/06/19 00:48 EDT    2.93   3.51    6  220    8  79.0 -99.9 1012.2 -9.9 -9.999 -99.9 -99.99 -9.99
2018/06/19 00:54 EDT    2.95   3.52    6  218    8  79.0 -99.9 1012.1 -9.9 -9.999 -99.9 -99.99 -9.99
2018/06/19 01:00 EDT    2.96   3.54    6  218    8  78.8 -99.9 1012.0 -9.9 -9.999 -99.9 -99.99 -9.99
2018/06/19 01:06 EDT    2.97   3.57    7  221    8  79.0 -99.9 1011.9 -9.9 -9.999 -99.9 -99.99 -9.99
2018/06/19 01:12 EDT    2.98   3.56    7  224    8  79.0 -99.9 1011.9 -9.9 -9.999 -99.9 -99.99 -9.99
2018/06/19 01:18 EDT    2.98   3.56    8  224    8  79.0 -99.9 1011.8 -9.9 -9.999 -99.9 -99.99 -9.99
2018/06/19 01:24 EDT    2.98   3.54    7  229    9  79.0 -99.9 1011.7 -9.9 -9.999 -99.9 -99.99 -9.99
2018/06/19 01:30 EDT    2.98   3.53    7  228    9  78.8 -99.9 1011.6 -9.9 -9.999 -99.9 -99.99 -9.99
2018/06/19 01:36 EDT    2.97   3.52    8  226    9  78.8 -99.9 1011.6 -9.9 -9.999 -99.9 -99.99 -9.99
2018/06/19 01:42 EDT    2.96   3.50    9  224   10  78.8 -99.9 1011.6 -9.9 -9.999 -99.9 -99.99 -9.99
2018/06/19 01:48 EDT    2.95   3.47    8  223   10  78.8 -99.9 1011.5 -9.9 -9.999 -99.9 -99.99 -9.99
2018/06/19 01:54 EDT    2.93   3.47    8  223   10  79.0 -99.9 1011.4 -9.9 -9.999 -99.9 -99.99 -9.99
2018/06/19 02:00 EDT    2.91   3.47    8  223    9  79.0 -99.9 1011.5 -9.9 -9.999 -99.9 -99.99 -9.99
2018/06/19 02:06 EDT    2.89   3.42    7  225    9  79.0 -99.9 1011.5 -9.9 -9.999 -99.9 -99.99 -9.99
2018/06/19 02:12 EDT    2.87   3.38    8  225   10  79.0 -99.9 1011.4 -9.9 -9.999 -99.9 -99.99 -9.99
2018/06/19 02:18 EDT    2.84   3.34    7  227    9  79.0 -99.9 1011.4 -9.9 -9.999 -99.9 -99.99 -9.99
2018/06/19 02:24 EDT    2.81   3.30    8  222    9  79.0 -99.9 1011.3 -9.9 -9.999 -99.9 -99.99 -9.99
2018/06/19 02:30 EDT    2.77   3.26    6  225    9  79.0 -99.9 1011.3 -9.9 -9.999 -99.9 -99.99 -9.99
2018/06/19 02:36 EDT    2.74   3.24    7  224    9  79.0 -99.9 1011.2 -9.9 -9.999 -99.9 -99.99 -9.99
2018/06/19 02:42 EDT    2.70   3.20    8  226    9  79.0 -99.9 1011.2 -9.9 -9.999 -99.9 -99.99 -9.99
2018/06/19 02:48 EDT    2.66   3.19    8  224    9  79.0 -99.9 1011.2 -9.9 -9.999 -99.9 -99.99 -9.99
2018/06/19 02:54 EDT    2.61   3.15    8  223    9  79.0 -99.9 1011.1 -9.9 -9.999 -99.9 -99.99 -9.99
2018/06/19 03:00 EDT    2.56   3.13    7  225    9  78.8 -99.9 1011.0 -9.9 -9.999 -99.9 -99.99 -9.99
2018/06/19 03:06 EDT    2.51   3.08    7  227    9  78.8 -99.9 1011.0 -9.9 -9.999 -99.9 -99.99 -9.99
2018/06/19 03:12 EDT    2.46   3.02    7  227    8  78.6 -99.9 1011.0 -9.9 -9.999 -99.9 -99.99 -9.99
2018/06/19 03:18 EDT    2.41   2.97    6  221    9  78.6 -99.9 1010.9 -9.9 -9.999 -99.9 -99.99 -9.99
2018/06/19 03:24 EDT    2.35   2.96    7  230    8  78.8 -99.9 1010.9 -9.9 -9.999 -99.9 -99.99 -9.99
2018/06/19 03:30 EDT    2.29   2.92    7  234    8  78.8 -99.9 1010.8 -9.9 -9.999 -99.9 -99.99 -9.99
2018/06/19 03:36 EDT    2.22   2.84    6  232    8  78.8 -99.9 1010.7 -9.9 -9.999 -99.9 -99.99 -9.99
2018/06/19 03:42 EDT    2.16   2.81    6  232    7  78.8 -99.9 1010.7 -9.9 -9.999 -99.9 -99.99 -9.99
2018/06/19 03:48 EDT    2.09   2.77    5  236    7  78.8 -99.9 1010.6 -9.9 -9.999 -99.9 -99.99 -9.99
2018/06/19 03:54 EDT    2.02   2.68    5  231    7  78.8 -99.9 1010.5 -9.9 -9.999 -99.9 -99.99 -9.99
2018/06/19 04:00 EDT    1.95   2.59    5  233    6  78.6 -99.9 1010.4 -9.9 -9.999 -99.9 -99.99 -9.99
2018/06/19 04:06 EDT    1.87   2.55    5  232    7  78.8 -99.9 1010.4 -9.9 -9.999 -99.9 -99.99 -9.99
2018/06/19 04:12 EDT    1.80   2.46    6  230    7  78.8 -99.9 1010.3 -9.9 -9.999 -99.9 -99.99 -9.99
2018/06/19 04:18 EDT    1.72   2.39    6  235    9  78.8 -99.9 1010.4 -9.9 -9.999 -99.9 -99.99 -9.99
2018/06/19 04:24 EDT    1.65   2.30    6  235    8  79.0 -99.9 1010.3 -9.9 -9.999 -99.9 -99.99 -9.99
2018/06/19 04:30 EDT    1.57   2.22    5  235    8  79.0 -99.9 1010.3 -9.9 -9.999 -99.9 -99.99 -9.99
2018/06/19 04:36 EDT    1.49   2.09    6  234    9  79.0 -99.9 1010.2 -9.9 -9.999 -99.9 -99.99 -9.99
2018/06/19 04:42 EDT    1.41   2.05    7  237    8  79.0 -99.9 1010.2 -9.9 -9.999 -99.9 -99.99 -9.99
2018/06/19 04:48 EDT    1.33   1.94    7  237   10  79.0 -99.9 1010.2 -9.9 -9.999 -99.9 -99.99 -9.99
2018/06/19 04:54 EDT    1.25   1.86   10  242   11  79.0 -99.9 1010.3 -9.9 -9.999 -99.9 -99.99 -9.99
2018/06/19 05:00 EDT    1.17   1.76   10  242   11  79.2 -99.9 1010.3 -9.9 -9.999 -99.9 -99.99 -9.99
2018/06/19 05:06 EDT    1.09   1.68    9  243   11  79.2 -99.9 1010.3 -9.9 -9.999 -99.9 -99.99 -9.99
2018/06/19 05:12 EDT    1.02   1.60   11  245   11  79.3 -99.9 1010.3 -9.9 -9.999 -99.9 -99.99 -9.99
2018/06/19 05:18 EDT    0.94   1.56   11  246   12  79.5 -99.9 1010.3 -9.9 -9.999 -99.9 -99.99 -9.99
2018/06/19 05:24 EDT    0.86   1.47   11  248   12  79.3 -99.9 1010.3 -9.9 -9.999 -99.9 -99.99 -9.99
2018/06/19 05:30 EDT    0.79   1.43   12  247   13  79.3 -99.9 1010.4 -9.9 -9.999 -99.9 -99.99 -9.99
2018/06/19 05:36 EDT    0.72   1.34   12  250   12  79.3 -99.9 1010.5 -9.9 -9.999 -99.9 -99.99 -9.99
2018/06/19 05:42 EDT    0.65   1.29   11  251   13  79.3 -99.9 1010.5 -9.9 -9.999 -99.9 -99.99 -9.99
2018/06/19 05:48 EDT    0.58   1.20   12  252   13  79.2 -99.9 1010.5 -9.9 -9.999 -99.9 -99.99 -9.99
2018/06/19 05:54 EDT    0.52   1.12   12  253   13  79.2 -99.9 1010.5 -9.9 -9.999 -99.9 -99.99 -9.99
2018/06/19 06:00 EDT    0.46   1.07   13  255   14  79.2 -99.9 1010.6 -9.9 -9.999 -99.9 -99.99 -9.99
2018/06/19 06:06 EDT    0.40   0.99   12  258   14  79.0 -99.9 1010.7 -9.9 -9.999 -99.9 -99.99 -9.99
2018/06/19 06:12 EDT    0.34   0.96   11  255   13  79.0 -99.9 1010.7 -9.9 -9.999 -99.9 -99.99 -9.99
2018/06/19 06:18 EDT    0.29   0.87   11  260   12  79.0 -99.9 1010.8 -9.9 -9.999 -99.9 -99.99 -9.99
2018/06/19 06:24 EDT    0.24   0.83   11  263   12  79.2 -99.9 1010.8 -9.9 -9.999 -99.9 -99.99 -9.99
2018/06/19 06:30 EDT    0.19   0.78   11  268   12  79.3 -99.9 1010.9 -9.9 -9.999 -99.9 -99.99 -9.99
2018/06/19 06:36 EDT    0.14   0.73   13  269   14  79.5 -99.9 1010.8 -9.9 -9.999 -99.9 -99.99 -9.99
2018/06/19 06:42 EDT    0.10   0.70   12  271   14  79.5 -99.9 1010.8 -9.9 -9.999 -99.9 -99.99 -9.99
2018/06/19 06:48 EDT    0.06   0.69   12  271   13  79.5 -99.9 1010.8 -9.9 -9.999 -99.9 -99.99 -9.99
2018/06/19 06:54 EDT    0.03   0.63   11  272   13  79.3 -99.9 1010.8 -9.9 -9.999 -99.9 -99.99 -9.99
2018/06/19 07:00 EDT   -0.00   0.63   10  273   11  79.5 -99.9 1010.8 -9.9 -9.999 -99.9 -99.99 -9.99
2018/06/19 07:06 EDT   -0.03   0.59   10  273   11  79.7 -99.9 1010.8 -9.9 -9.999 -99.9 -99.99 -9.99
2018/06/19 07:12 EDT   -0.06   0.58   10  273   11  79.7 -99.9 1010.8 -9.9 -9.999 -99.9 -99.99 -9.99
2018/06/19 07:18 EDT   -0.08   0.56   10  273   11  79.7 -99.9 1010.8 -9.9 -9.999 -99.9 -99.99 -9.99
2018/06/19 07:24 EDT   -0.09   0.55   10  273   11  79.7 -99.9 1010.8 -9.9 -9.999 -99.9 -99.99 -9.99
2018/06/19 07:30 EDT   -0.11   0.55   10  271   11  79.7 -99.9 1010.8 -9.9 -9.999 -99.9 -99.99 -9.99
2018/06/19 07:36 EDT   -0.12   0.53   10  268   10  79.7 -99.9 1010.8 -9.9 -9.999 -99.9 -99.99 -9.99
2018/06/19 07:42 EDT   -0.12   0.48   10  266   11  79.7 -99.9 1010.8 -9.9 -9.999 -99.9 -99.99 -9.99
2018/06/19 07:48 EDT   -0.13   0.47   10  264   10  79.7 -99.9 1010.8 -9.9 -9.999 -99.9 -99.99 -9.99
2018/06/19 07:54 EDT   -0.12   0.47    9  266   10  79.7 -99.9 1010.8 -9.9 -9.999 -99.9 -99.99 -9.99
2018/06/19 08:00 EDT   -0.12   0.52   10  265   10  79.7 -99.9 1010.9 -9.9 -9.999 -99.9 -99.99 -9.99
2018/06/19 08:06 EDT   -0.11   0.52    9  265   10  79.5 -99.9 1010.9 -9.9 -9.999 -99.9 -99.99 -9.99
2018/06/19 08:12 EDT   -0.10   0.50   10  266   11  79.5 -99.9 1010.9 -9.9 -9.999 -99.9 -99.99 -9.99
2018/06/19 08:18 EDT   -0.08   0.52   10  267   11  79.5 -99.9 1010.8 -9.9 -9.999 -99.9 -99.99 -9.99
2018/06/19 08:24 EDT   -0.06   0.55   10  265   10  79.5 -99.9 1010.8 -9.9 -9.999 -99.9 -99.99 -9.99
2018/06/19 08:30 EDT   -0.04   0.54   10  264   11  79.7 -99.9 1010.7 -9.9 -9.999 -99.9 -99.99 -9.99
2018/06/19 08:36 EDT   -0.01   0.60   10  262   11  79.7 -99.9 1010.8 -9.9 -9.999 -99.9 -99.99 -9.99
2018/06/19 08:42 EDT    0.02   0.62   11  265   11  79.5 -99.9 1010.7 -9.9 -9.999 -99.9 -99.99 -9.99
2018/06/19 08:48 EDT    0.05   0.61   10  267   11  79.7 -99.9 1010.7 -9.9 -9.999 -99.9 -99.99 -9.99
2018/06/19 08:54 EDT    0.09   0.62   11  265   11  79.9 -99.9 1010.7 -9.9 -9.999 -99.9 -99.99 -9.99
2018/06/19 09:00 EDT    0.13   0.70   11  262   12  79.9 -99.9 1010.6 -9.9 -9.999 -99.9 -99.99 -9.99
2018/06/19 09:06 EDT    0.17   0.71   11  263   11  79.9 -99.9 1010.6 -9.9 -9.999 -99.9 -99.99 -9.99
2018/06/19 09:12 EDT    0.22   0.75   11  265   12  79.9 -99.9 1010.5 -9.9 -9.999 -99.9 -99.99 -9.99
2018/06/19 09:18 EDT    0.27   0.78   10  267   11  80.1 -99.9 1010.5 -9.9 -9.999 -99.9 -99.99 -9.99
2018/06/19 09:24 EDT    0.32   0.81   10  267   11  80.1 -99.9 1010.5 -9.9 -9.999 -99.9 -99.99 -9.99
2018/06/19 09:30 EDT    0.38   0.88   10  264   11  80.2 -99.9 1010.4 -9.9 -9.999 -99.9 -99.99 -9.99
2018/06/19 09:36 EDT    0.43   0.94   10  261   11  80.2 -99.9 1010.3 -9.9 -9.999 -99.9 -99.99 -9.99
2018/06/19 09:42 EDT    0.50   0.99   10  262   11  80.4 -99.9 1010.4 -9.9 -9.999 -99.9 -99.99 -9.99
2018/06/19 09:48 EDT    0.56   1.04   11  264   12  80.4 -99.9 1010.4 -9.9 -9.999 -99.9 -99.99 -9.99
2018/06/19 09:54 EDT    0.62   1.08   11  266   12  80.6 -99.9 1010.3 -9.9 -9.999 -99.9 -99.99 -9.99
2018/06/19 10:00 EDT    0.69   1.17   11  267   12  80.8 -99.9 1010.4 -9.9 -9.999 -99.9 -99.99 -9.99
2018/06/19 10:06 EDT    0.76   1.24   10  267   11  81.0 -99.9 1010.3 -9.9 -9.999 -99.9 -99.99 -9.99
2018/06/19 10:12 EDT    0.83   1.33   10  265   11  81.0 -99.9 1010.3 -9.9 -9.999 -99.9 -99.99 -9.99
2018/06/19 10:18 EDT    0.90   1.41   10  265   11  81.1 -99.9 1010.3 -9.9 -9.999 -99.9 -99.99 -9.99
2018/06/19 10:24 EDT    0.97   1.48   10  265   11  81.3 -99.9 1010.2 -9.9 -9.999 -99.9 -99.99 -9.99
2018/06/19 10:30 EDT    1.05   1.54    9  266   10  81.5 -99.9 1010.2 -9.9 -9.999 -99.9 -99.99 -9.99
2018/06/19 10:36 EDT    1.12   1.59    8  268   10  81.7 -99.9 1010.3 -9.9 -9.999 -99.9 -99.99 -9.99
2018/06/19 10:42 EDT    1.20   1.67    8  267    9  82.0 -99.9 1010.2 -9.9 -9.999 -99.9 -99.99 -9.99
2018/06/19 10:48 EDT    1.28   1.74    9  271   10  82.2 -99.9 1010.2 -9.9 -9.999 -99.9 -99.99 -9.99
2018/06/19 10:54 EDT    1.35   1.82    8  272   10  82.4 -99.9 1010.2 -9.9 -9.999 -99.9 -99.99 -9.99
2018/06/19 11:00 EDT    1.43   1.87    8  273    9  82.6 -99.9 1010.2 -9.9 -9.999 -99.9 -99.99 -9.99
2018/06/19 11:06 EDT    1.51   1.94    8  274    9  82.6 -99.9 1010.2 -9.9 -9.999 -99.9 -99.99 -9.99
2018/06/19 11:12 EDT    1.58   2.01    8  272    9  82.8 -99.9 1010.2 -9.9 -9.999 -99.9 -99.99 -9.99
2018/06/19 11:18 EDT    1.66   2.06    7  271    9  82.9 -99.9 1010.3 -9.9 -9.999 -99.9 -99.99 -9.99
2018/06/19 11:24 EDT    1.73   2.13    7  270    8  83.1 -99.9 1010.3 -9.9 -9.999 -99.9 -99.99 -9.99
2018/06/19 11:30 EDT    1.81   2.22    8  266    9  83.1 -99.9 1010.2 -9.9 -9.999 -99.9 -99.99 -9.99
2018/06/19 11:36 EDT    1.88   2.29    8  261    9  83.5 -99.9 1010.1 -9.9 -9.999 -99.9 -99.99 -9.99
2018/06/19 11:42 EDT    1.95   2.35    7  262    9  83.7 -99.9 1010.1 -9.9 -9.999 -99.9 -99.99 -9.99
2018/06/19 11:48 EDT    2.02   2.41    7  260    8  84.0 -99.9 1010.1 -9.9 -9.999 -99.9 -99.99 -9.99
2018/06/19 11:54 EDT    2.08   2.51    7  258    8  84.0 -99.9 1010.0 -9.9 -9.999 -99.9 -99.99 -9.99
2018/06/19 12:00 EDT    2.15   2.57    7  260    8  84.2 -99.9 1009.9 -9.9 -9.999 -99.9 -99.99 -9.99
2018/06/19 12:06 EDT    2.21   2.63    8  261    9  84.2 -99.9 1009.9 -9.9 -9.999 -99.9 -99.99 -9.99
2018/06/19 12:12 EDT    2.27   2.70    8  261    8  84.4 -99.9 1009.9 -9.9 -9.999 -99.9 -99.99 -9.99
2018/06/19 12:18 EDT    2.33   2.76    8  266    9  84.4 -99.9 1009.9 -9.9 -9.999 -99.9 -99.99 -9.99
2018/06/19 12:24 EDT    2.38   2.81    8  259    9  84.7 -99.9 1009.8 -9.9 -9.999 -99.9 -99.99 -9.99
2018/06/19 12:30 EDT    2.44   2.88    8  264    9  84.9 -99.9 1009.8 -9.9 -9.999 -99.9 -99.99 -9.99
2018/06/19 12:36 EDT    2.48   2.90    9  261   10  85.5 -99.9 1009.7 -9.9 -9.999 -99.9 -99.99 -9.99
2018/06/19 12:42 EDT    2.53   2.95    7  269    8  85.8 -99.9 1009.7 -9.9 -9.999 -99.9 -99.99 -9.99
2018/06/19 12:48 EDT    2.57   3.02    8  263    9  86.2 -99.9 1009.6 -9.9 -9.999 -99.9 -99.99 -9.99
2018/06/19 12:54 EDT    2.61   3.06    7  263    9  86.2 -99.9 1009.6 -9.9 -9.999 -99.9 -99.99 -9.99
2018/06/19 13:00 EDT    2.65   3.07    8  262    9  86.2 -99.9 1009.5 -9.9 -9.999 -99.9 -99.99 -9.99
2018/06/19 13:06 EDT    2.68   3.12    6  269    8  86.4 -99.9 1009.5 -9.9 -9.999 -99.9 -99.99 -9.99
2018/06/19 13:12 EDT    2.71   3.14    6  255    6  86.2 -99.9 1009.4 -9.9 -9.999 -99.9 -99.99 -9.99
2018/06/19 13:18 EDT    2.74   3.16    6  255    7  86.0 -99.9 1009.3 -9.9 -9.999 -99.9 -99.99 -9.99
2018/06/19 13:24 EDT    2.76   3.18    7  258    8  86.2 -99.9 1009.4 -9.9 -9.999 -99.9 -99.99 -9.99
2018/06/19 13:30 EDT    2.78   3.19    8  255    8  86.7 -99.9 1009.3 -9.9 -9.999 -99.9 -99.99 -9.99
2018/06/19 13:36 EDT    2.79   3.19    8  255    9  87.4 -99.9 1009.3 -9.9 -9.999 -99.9 -99.99 -9.99
2018/06/19 13:42 EDT    2.81   3.21    7  256    9  87.4 -99.9 1009.2 -9.9 -9.999 -99.9 -99.99 -9.99
2018/06/19 13:48 EDT    2.82   3.22    6  250    7  87.1 -99.9 1009.2 -9.9 -9.999 -99.9 -99.99 -9.99
2018/06/19 13:54 EDT    2.82   3.23    7  245    8  87.3 -99.9 1009.1 -9.9 -9.999 -99.9 -99.99 -9.99
2018/06/19 14:00 EDT    2.83   3.23    7  245    9  88.0 -99.9 1009.0 -9.9 -9.999 -99.9 -99.99 -9.99
2018/06/19 14:06 EDT    2.83   3.23    6  242    8  88.7 -99.9 1008.9 -9.9 -9.999 -99.9 -99.99 -9.99
2018/06/19 14:12 EDT    2.83   3.24    4  240    7  88.9 -99.9 1008.8 -9.9 -9.999 -99.9 -99.99 -9.99
2018/06/19 14:18 EDT    2.82   3.22    6  246    7  89.6 -99.9 1008.7 -9.9 -9.999 -99.9 -99.99 -9.99
2018/06/19 14:24 EDT    2.81   3.20    6  257    7  89.6 -99.9 1008.7 -9.9 -9.999 -99.9 -99.99 -9.99
2018/06/19 14:30 EDT    2.80   3.19    4  273    6  89.4 -99.9 1008.8 -9.9 -9.999 -99.9 -99.99 -9.99
2018/06/19 14:36 EDT    2.79   3.18    2  308    4  89.2 -99.9 1008.8 -9.9 -9.999 -99.9 -99.99 -9.99
2018/06/19 14:42 EDT    2.77   3.17    2   21    3  87.6 -99.9 1008.7 -9.9 -9.999 -99.9 -99.99 -9.99
2018/06/19 14:48 EDT    2.75   3.15    2  337    4  88.3 -99.9 1008.7 -9.9 -9.999 -99.9 -99.99 -9.99
2018/06/19 14:54 EDT    2.73   3.13    2   18    3  88.5 -99.9 1008.6 -9.9 -9.999 -99.9 -99.99 -9.99
2018/06/19 15:00 EDT    2.70   3.11    3   30    3  88.3 -99.9 1008.6 -9.9 -9.999 -99.9 -99.99 -9.99
2018/06/19 15:06 EDT    2.68   3.07    3   32    4  88.7 -99.9 1008.5 -9.9 -9.999 -99.9 -99.99 -9.99
2018/06/19 15:12 EDT    2.65   3.04    3   21    4  89.6 -99.9 1008.5 -9.9 -9.999 -99.9 -99.99 -9.99
2018/06/19 15:18 EDT    2.61   3.00    3   18    3  90.1 -99.9 1008.5 -9.9 -9.999 -99.9 -99.99 -9.99
2018/06/19 15:24 EDT    2.58   2.96    3   28    3  90.7 -99.9 1008.4 -9.9 -9.999 -99.9 -99.99 -9.99
2018/06/19 15:30 EDT    2.54   2.92    3   34    4  90.5 -99.9 1008.4 -9.9 -9.999 -99.9 -99.99 -9.99
2018/06/19 15:36 EDT    2.50   2.89    3   57    3  91.2 -99.9 1008.3 -9.9 -9.999 -99.9 -99.99 -9.99
2018/06/19 15:42 EDT    2.45   2.86    3   63    3  91.6 -99.9 1008.2 -9.9 -9.999 -99.9 -99.99 -9.99
2018/06/19 15:48 EDT    2.41   2.84    3   61    4  91.8 -99.9 1008.2 -9.9 -9.999 -99.9 -99.99 -9.99
2018/06/19 15:54 EDT    2.36   2.81    3   56    4  91.8 -99.9 1008.1 -9.9 -9.999 -99.9 -99.99 -9.99
2018/06/19 16:00 EDT    2.30   2.76    4   55    4  91.2 -99.9 1008.1 -9.9 -9.999 -99.9 -99.99 -9.99
2018/06/19 16:06 EDT    2.25   2.72    3   42    4  91.4 -99.9 1008.1 -9.9 -9.999 -99.9 -99.99 -9.99
2018/06/19 16:12 EDT    2.19   2.67    3   42    4  91.4 -99.9 1008.1 -9.9 -9.999 -99.9 -99.99 -9.99
2018/06/19 16:18 EDT    2.13   2.61    4   39    4  91.2 -99.9 1008.0 -9.9 -9.999 -99.9 -99.99 -9.99
2018/06/19 16:24 EDT    2.07   2.54    4   36    4  91.4 -99.9 1007.9 -9.9 -9.999 -99.9 -99.99 -9.99
2018/06/19 16:30 EDT    2.01   2.50    3   32    4  91.8 -99.9 1007.9 -9.9 -9.999 -99.9 -99.99 -9.99
2018/06/19 16:36 EDT    1.94   2.42    3   45    4  91.9 -99.9 1007.8 -9.9 -9.999 -99.9 -99.99 -9.99
2018/06/19 16:42 EDT    1.88   2.36    3   42    3  92.1 -99.9 1007.8 -9.9 -9.999 -99.9 -99.99 -9.99
2018/06/19 16:48 EDT    1.81   2.29    3   56    4  91.8 -99.9 1007.7 -9.9 -9.999 -99.9 -99.99 -9.99
2018/06/19 16:54 EDT    1.74   2.21    3   59    5  91.0 -99.9 1007.7 -9.9 -9.999 -99.9 -99.99 -9.99
2018/06/19 17:00 EDT    1.67   2.15    4   60    5  91.2 -99.9 1007.6 -9.9 -9.999 -99.9 -99.99 -9.99
2018/06/19 17:06 EDT    1.60   2.07    3   60    4  91.2 -99.9 1007.4 -9.9 -9.999 -99.9 -99.99 -9.99
2018/06/19 17:12 EDT    1.53   2.01    3   61    4  91.2 -99.9 1007.3 -9.9 -9.999 -99.9 -99.99 -9.99
2018/06/19 17:18 EDT    1.46   1.93    5  120    7  90.0 -99.9 1007.4 -9.9 -9.999 -99.9 -99.99 -9.99
2018/06/19 17:24 EDT    1.39   1.80    8  147   10  89.4 -99.9 1007.5 -9.9 -9.999 -99.9 -99.99 -9.99
2018/06/19 17:30 EDT    1.31   1.73    8  144   11  89.2 -99.9 1007.5 -9.9 -9.999 -99.9 -99.99 -9.99
2018/06/19 17:36 EDT    1.24   1.63    7  146   10  88.3 -99.9 1007.5 -9.9 -9.999 -99.9 -99.99 -9.99
2018/06/19 17:42 EDT    1.17   1.55    9  153   11  87.3 -99.9 1007.5 -9.9 -9.999 -99.9 -99.99 -9.99
2018/06/19 17:48 EDT    1.11   1.48    9  148   11  86.9 -99.9 1007.4 -9.9 -9.999 -99.9 -99.99 -9.99
2018/06/19 17:54 EDT    1.04   1.42   10  147   12  86.9 -99.9 1007.3 -9.9 -9.999 -99.9 -99.99 -9.99
2018/06/19 18:00 EDT    0.97   1.34   10  156   12  86.7 -99.9 1007.3 -9.9 -9.999 -99.9 -99.99 -9.99
2018/06/19 18:06 EDT    0.91   1.30   11  153   13  86.9 -99.9 1007.3 -9.9 -9.999 -99.9 -99.99 -9.99
2018/06/19 18:12 EDT    0.85   1.22   10  155   12  87.1 -99.9 1007.4 -9.9 -9.999 -99.9 -99.99 -9.99
2018/06/19 18:18 EDT    0.79   1.18    9  145   12  87.3 -99.9 1007.7 -9.9 -9.999 -99.9 -99.99 -9.99
2018/06/19 18:24 EDT    0.73   1.13    7  155   10  87.1 -99.9 1007.8 -9.9 -9.999 -99.9 -99.99 -9.99
2018/06/19 18:30 EDT    0.67   1.10    8  147   10  86.7 -99.9 1007.9 -9.9 -9.999 -99.9 -99.99 -9.99
2018/06/19 18:36 EDT    0.62   1.06   10  149   11  86.7 -99.9 1007.9 -9.9 -9.999 -99.9 -99.99 -9.99
2018/06/19 18:42 EDT    0.57   1.03   10  151   11  86.2 -99.9 1007.9 -9.9 -9.999 -99.9 -99.99 -9.99
2018/06/19 18:48 EDT    0.52   1.00    8  144   12  86.2 -99.9 1008.1 -9.9 -9.999 -99.9 -99.99 -9.99
2018/06/19 18:54 EDT    0.47   0.97    9  141   10  85.6 -99.9 1008.2 -9.9 -9.999 -99.9 -99.99 -9.99
2018/06/19 19:00 EDT    0.43   0.99    4  126   10  85.3 -99.9 1008.9 -9.9 -9.999 -99.9 -99.99 -9.99
2018/06/19 19:06 EDT    0.39   0.94   27   26   49  80.2 -99.9 1008.9 -9.9 -9.999 -99.9 -99.99 -9.99
2018/06/19 19:12 EDT    0.35   1.00   25   28   32  79.5 -99.9 1009.0 -9.9 -9.999 -99.9 -99.99 -9.99
2018/06/19 19:18 EDT    0.32   0.97   25   18   30  77.7 -99.9 1009.1 -9.9 -9.999 -99.9 -99.99 -9.99
2018/06/19 19:24 EDT    0.28   0.95   23    7   29  78.4 -99.9 1009.2 -9.9 -9.999 -99.9 -99.99 -9.99
2018/06/19 19:30 EDT    0.26   1.07   25   12   27  76.8 -99.9 1009.5 -9.9 -9.999 -99.9 -99.99 -9.99
2018/06/19 19:36 EDT    0.23   1.04   21   25   26  76.5 -99.9 1009.6 -9.9 -9.999 -99.9 -99.99 -9.99
2018/06/19 19:42 EDT    0.21   1.11   16   33   24  76.8 -99.9 1009.7 -9.9 -9.999 -99.9 -99.99 -9.99
2018/06/19 19:48 EDT    0.19   1.16   12   29   17  77.2 -99.9 1009.8 -9.9 -9.999 -99.9 -99.99 -9.99
2018/06/19 19:54 EDT    0.17   1.07    6   22   13  77.0 -99.9 1009.9 -9.9 -9.999 -99.9 -99.99 -9.99
2018/06/19 20:00 EDT    0.16   0.92    2   29    6  77.0 -99.9 1009.8 -9.9 -9.999 -99.9 -99.99 -9.99
2018/06/19 20:06 EDT    0.15   0.87    1   63    1  77.0 -99.9 1009.6 -9.9 -9.999 -99.9 -99.99 -9.99
2018/06/19 20:12 EDT    0.15   0.82    3    7    3  77.2 -99.9 1009.5 -9.9 -9.999 -99.9 -99.99 -9.99
2018/06/19 20:18 EDT    0.14   0.88    8    6    9  77.5 -99.9 1009.3 -9.9 -9.999 -99.9 -99.99 -9.99
2018/06/19 20:24 EDT    0.15   0.80   13    5   15  78.1 -99.9 1009.2 -9.9 -9.999 -99.9 -99.99 -9.99
2018/06/19 20:30 EDT    0.15   0.76   12    5   15  77.9 -99.9 1009.2 -9.9 -9.999 -99.9 -99.99 -9.99
2018/06/19 20:36 EDT    0.16   0.75   14    5   15  77.9 -99.9 1009.3 -9.9 -9.999 -99.9 -99.99 -9.99
2018/06/19 20:42 EDT    0.17   0.66   14  346   15  78.4 -99.9 1009.5 -9.9 -9.999 -99.9 -99.99 -9.99
2018/06/19 20:48 EDT    0.19   0.69   11  346   15  78.8 -99.9 1009.4 -9.9 -9.999 -99.9 -99.99 -9.99
2018/06/19 20:54 EDT    0.21   0.73   17  339   20  80.4 -99.9 1009.6 -9.9 -9.999 -99.9 -99.99 -9.99
2018/06/19 21:00 EDT    0.23   0.69   16  333   19  80.1 -99.9 1009.5 -9.9 -9.999 -99.9 -99.99 -9.99
2018/06/19 21:06 EDT    0.25   0.71   14  329   19  79.0 -99.9 1009.5 -9.9 -9.999 -99.9 -99.99 -9.99
2018/06/19 21:12 EDT    0.28   0.81   14  343   16  78.4 -99.9 1009.5 -9.9 -9.999 -99.9 -99.99 -9.99
2018/06/19 21:18 EDT    0.31   0.79   13  345   14  78.3 -99.9 1009.4 -9.9 -9.999 -99.9 -99.99 -9.99
2018/06/19 21:24 EDT    0.35   0.80   10  344   13  78.3 -99.9 1009.5 -9.9 -9.999 -99.9 -99.99 -9.99
2018/06/19 21:30 EDT    0.39   0.80   10  343   12  78.1 -99.9 1009.6 -9.9 -9.999 -99.9 -99.99 -9.99
2018/06/19 21:36 EDT    0.43   0.86   10    6   11  78.3 -99.9 1009.5 -9.9 -9.999 -99.9 -99.99 -9.99
2018/06/19 21:42 EDT    0.47   0.89    9  331   10  78.3 -99.9 1009.8 -9.9 -9.999 -99.9 -99.99 -9.99
2018/06/19 21:48 EDT    0.52   0.95    8  341   10  78.1 -99.9 1009.8 -9.9 -9.999 -99.9 -99.99 -9.99
2018/06/19 21:54 EDT    0.57   0.97    8  357   10  78.1 -99.9 1009.8 -9.9 -9.999 -99.9 -99.99 -9.99
2018/06/19 22:00 EDT    0.62   1.03    7  343    9  78.3 -99.9 1009.9 -9.9 -9.999 -99.9 -99.99 -9.99
2018/06/19 22:06 EDT    0.68   1.13    7  335    8  78.1 -99.9 1010.0 -9.9 -9.999 -99.9 -99.99 -9.99
2018/06/19 22:12 EDT    0.73   1.22    8  320    9  78.3 -99.9 1010.2 -9.9 -9.999 -99.9 -99.99 -9.99
2018/06/19 22:18 EDT    0.79   1.23    8  311    9  78.4 -99.9 1010.3 -9.9 -9.999 -99.9 -99.99 -9.99
2018/06/19 22:24 EDT    0.85   1.34    6  322    9  78.3 -99.9 1010.2 -9.9 -9.999 -99.9 -99.99 -9.99
2018/06/19 22:30 EDT    0.91   1.36    4  330    6  78.3 -99.9 1010.2 -9.9 -9.999 -99.9 -99.99 -9.99
2018/06/19 22:36 EDT    0.98   1.46    5  300    6  78.4 -99.9 1010.4 -9.9 -9.999 -99.9 -99.99 -9.99
2018/06/19 22:42 EDT    1.04   1.50    7  325    8  78.3 -99.9 1010.5 -9.9 -9.999 -99.9 -99.99 -9.99
2018/06/19 22:48 EDT    1.11   1.57   10  332   11  78.6 -99.9 1010.5 -9.9 -9.999 -99.9 -99.99 -9.99
2018/06/19 22:54 EDT    1.18   1.64   11  333   12  78.4 -99.9 1010.4 -9.9 -9.999 -99.9 -99.99 -9.99
2018/06/19 23:00 EDT    1.25   1.67   10  350   11  78.4 -99.9 1010.2 -9.9 -9.999 -99.9 -99.99 -9.99
2018/06/19 23:06 EDT    1.32   1.74   12  342   14  78.3 -99.9 1010.1 -9.9 -9.999 -99.9 -99.99 -9.99
2018/06/19 23:12 EDT    1.38   1.77   11  344   13  78.1 -99.9 1010.2 -9.9 -9.999 -99.9 -99.99 -9.99
2018/06/19 23:18 EDT    1.45   1.91   11  343   12  77.9 -99.9 1010.2 -9.9 -9.999 -99.9 -99.99 -9.99
2018/06/19 23:24 EDT    1.52   1.96   12  354   13  77.9 -99.9 1010.2 -9.9 -9.999 -99.9 -99.99 -9.99
2018/06/19 23:30 EDT    1.59   2.07   11  349   14  77.9 -99.9 1010.3 -9.9 -9.999 -99.9 -99.99 -9.99
2018/06/19 23:36 EDT    1.66   2.07   10  358   12  77.7 -99.9 1010.2 -9.9 -9.999 -99.9 -99.99 -9.99
2018/06/19 23:42 EDT    1.73   2.14   10  354   12  77.5 -99.9 1010.2 -9.9 -9.999 -99.9 -99.99 -9.99
2018/06/19 23:48 EDT    1.80   2.19    9  339   11  77.7 -99.9 1010.1 -9.9 -9.999 -99.9 -99.99 -9.99
2018/06/19 23:54 EDT    1.87   2.26    9  341   10  77.7 -99.9 1010.1 -9.9 -9.999 -99.9 -99.99 -9.99
2018/06/20 00:00 EDT    1.93   2.34   10  337   11  77.7 -99.9 1010.2 -9.9 -9.999 -99.9 -99.99 -9.99
2018/06/20 00:06 EDT    2.00   2.39    9  337   10  77.7 -99.9 1010.2 -9.9 -9.999 -99.9 -99.99 -9.99
2018/06/20 00:12 EDT    2.06   2.45    8  332   10  77.5 -99.9 1010.2 -9.9 -9.999 -99.9 -99.99 -9.99
2018/06/20 00:18 EDT    2.12   2.52    8  337   10  77.7 -99.9 1010.1 -9.9 -9.999 -99.9 -99.99 -9.99
2018/06/20 00:24 EDT    2.18   2.59   10  332   11  77.7 -99.9 1010.2 -9.9 -9.999 -99.9 -99.99 -9.99
2018/06/20 00:30 EDT    2.23   2.68   11  320   12  77.7 -99.9 1010.2 -9.9 -9.999 -99.9 -99.99 -9.99
2018/06/20 00:36 EDT    2.29   2.70   11  319   12  77.5 -99.9 1010.2 -9.9 -9.999 -99.9 -99.99 -9.99
2018/06/20 00:42 EDT    2.34   2.81   11  312   12  77.5 -99.9 1010.2 -9.9 -9.999 -99.9 -99.99 -9.99
2018/06/20 00:48 EDT    2.39   2.86   11  315   12  77.2 -99.9 1010.1 -9.9 -9.999 -99.9 -99.99 -9.99
2018/06/20 00:54 EDT    2.44   2.90   10  323   11  77.2 -99.9 1010.1 -9.9 -9.999 -99.9 -99.99 -9.99
2018/06/20 01:00 EDT    2.48   2.93    8  315   11  77.2 -99.9 1010.0 -9.9 -9.999 -99.9 -99.99 -9.99
2018/06/20 01:06 EDT    2.52   2.98    9  315   10  77.0 -99.9 1010.0 -9.9 -9.999 -99.9 -99.99 -9.99
2018/06/20 01:12 EDT    2.56   3.06    8  317   10  77.0 -99.9 1010.0 -9.9 -9.999 -99.9 -99.99 -9.99
2018/06/20 01:18 EDT    2.60   3.11    9  307   10  77.2 -99.9 1010.0 -9.9 -9.999 -99.9 -99.99 -9.99
2018/06/20 01:24 EDT    2.63   3.13    9  318   10  77.2 -99.9 1009.9 -9.9 -9.999 -99.9 -99.99 -9.99
2018/06/20 01:30 EDT    2.66   3.11    9  327   11  77.0 -99.9 1009.9 -9.9 -9.999 -99.9 -99.99 -9.99
2018/06/20 01:36 EDT    2.68   3.17    9  322   11  77.2 -99.9 1009.9 -9.9 -9.999 -99.9 -99.99 -9.99
2018/06/20 01:42 EDT    2.70   3.18   10  327   11  77.2 -99.9 1010.0 -9.9 -9.999 -99.9 -99.99 -9.99
2018/06/20 01:48 EDT    2.72   3.20   11  330   12  77.0 -99.9 1009.9 -9.9 -9.999 -99.9 -99.99 -9.99
2018/06/20 01:54 EDT    2.74   3.21   11  326   12  77.2 -99.9 1009.8 -9.9 -9.999 -99.9 -99.99 -9.99
2018/06/20 02:00 EDT    2.75   3.24   11  331   12  77.0 -99.9 1009.8 -9.9 -9.999 -99.9 -99.99 -9.99
2018/06/20 02:06 EDT    2.76   3.27   11  333   12  77.0 -99.9 1009.7 -9.9 -9.999 -99.9 -99.99 -9.99
2018/06/20 02:12 EDT    2.77   3.29   10  339   13  77.0 -99.9 1009.7 -9.9 -9.999 -99.9 -99.99 -9.99
2018/06/20 02:18 EDT    2.77   3.32    9  335   11  76.8 -99.9 1009.6 -9.9 -9.999 -99.9 -99.99 -9.99
2018/06/20 02:24 EDT    2.78   3.30    9  340   10  76.8 -99.9 1009.6 -9.9 -9.999 -99.9 -99.99 -9.99
2018/06/20 02:30 EDT    2.77   3.32    8  341    9  76.6 -99.9 1009.5 -9.9 -9.999 -99.9 -99.99 -9.99
2018/06/20 02:36 EDT    2.77   3.33    9  336   10  76.6 -99.9 1009.6 -9.9 -9.999 -99.9 -99.99 -9.99
2018/06/20 02:42 EDT    2.76   3.31    8  334   10  76.6 -99.9 1009.5 -9.9 -9.999 -99.9 -99.99 -9.99
2018/06/20 02:48 EDT    2.75   3.29    8  335    9  76.6 -99.9 1009.5 -9.9 -9.999 -99.9 -99.99 -9.99
2018/06/20 02:54 EDT    2.74   3.29    8  331    9  76.5 -99.9 1009.5 -9.9 -9.999 -99.9 -99.99 -9.99
2018/06/20 03:00 EDT    2.72   3.26    8  323    9  76.6 -99.9 1009.7 -9.9 -9.999 -99.9 -99.99 -9.99
2018/06/20 03:06 EDT    2.70   3.24    8  320   10  76.5 -99.9 1009.6 -9.9 -9.999 -99.9 -99.99 -9.99
2018/06/20 03:12 EDT    2.68   3.23    8  322    9  76.6 -99.9 1009.7 -9.9 -9.999 -99.9 -99.99 -9.99
2018/06/20 03:18 EDT    2.66   3.21    8  323   10  76.6 -99.9 1009.7 -9.9 -9.999 -99.9 -99.99 -9.99
2018/06/20 03:24 EDT    2.63   3.18   10  326   11  76.6 -99.9 1009.6 -9.9 -9.999 -99.9 -99.99 -9.99
2018/06/20 03:30 EDT    2.60   3.14    8  324   11  76.6 -99.9 1009.5 -9.9 -9.999 -99.9 -99.99 -9.99
2018/06/20 03:36 EDT    2.57   3.10    8  329   10  76.6 -99.9 1009.4 -9.9 -9.999 -99.9 -99.99 -9.99
2018/06/20 03:42 EDT    2.54   3.07    9  329   11  76.6 -99.9 1009.4 -9.9 -9.999 -99.9 -99.99 -9.99
2018/06/20 03:48 EDT    2.50   3.02    7  333   10  76.8 -99.9 1009.4 -9.9 -9.999 -99.9 -99.99 -9.99
2018/06/20 03:54 EDT    2.46   3.01    7  335   10  76.8 -99.9 1009.4 -9.9 -9.999 -99.9 -99.99 -9.99
2018/06/20 04:00 EDT    2.41   2.95    7  331    9  76.8 -99.9 1009.3 -9.9 -9.999 -99.9 -99.99 -9.99
2018/06/20 04:06 EDT    2.37   2.88    7  334    8  76.6 -99.9 1009.3 -9.9 -9.999 -99.9 -99.99 -9.99
2018/06/20 04:12 EDT    2.32   2.84    8  333    9  76.6 -99.9 1009.3 -9.9 -9.999 -99.9 -99.99 -9.99
2018/06/20 04:18 EDT    2.27   2.75    9  337   10  76.6 -99.9 1009.3 -9.9 -9.999 -99.9 -99.99 -9.99
2018/06/20 04:24 EDT    2.22   2.72    9  341   10  76.5 -99.9 1009.2 -9.9 -9.999 -99.9 -99.99 -9.99
2018/06/20 04:30 EDT    2.16   2.64    9  337   10  76.5 -99.9 1009.3 -9.9 -9.999 -99.9 -99.99 -9.99
2018/06/20 04:36 EDT    2.10   2.55    9  336   10  76.5 -99.9 1009.2 -9.9 -9.999 -99.9 -99.99 -9.99
2018/06/20 04:42 EDT    2.04   2.50    8  350    9  76.5 -99.9 1009.2 -9.9 -9.999 -99.9 -99.99 -9.99
2018/06/20 04:48 EDT    1.98   2.47    8  351    9  76.5 -99.9 1009.2 -9.9 -9.999 -99.9 -99.99 -9.99
2018/06/20 04:54 EDT    1.91   2.42    7  345    8  76.3 -99.9 1009.4 -9.9 -9.999 -99.9 -99.99 -9.99
2018/06/20 05:00 EDT    1.85   2.36    6  357    8  76.5 -99.9 1009.4 -9.9 -9.999 -99.9 -99.99 -9.99
2018/06/20 05:06 EDT    1.78   2.30    7    7    7  76.3 -99.9 1009.5 -9.9 -9.999 -99.9 -99.99 -9.99
2018/06/20 05:12 EDT    1.71   2.21    6    0    8  76.1 -99.9 1009.5 -9.9 -9.999 -99.9 -99.99 -9.99
2018/06/20 05:18 EDT    1.64   2.12    8  348    9  76.3 -99.9 1009.6 -9.9 -9.999 -99.9 -99.99 -9.99
2018/06/20 05:24 EDT    1.57   2.07    9  346   10  76.3 -99.9 1009.7 -9.9 -9.999 -99.9 -99.99 -9.99
2018/06/20 05:30 EDT    1.49   2.00    9  349   11  76.1 -99.9 1009.8 -9.9 -9.999 -99.9 -99.99 -9.99
2018/06/20 05:36 EDT    1.42   1.95    9  342   11  76.5 -99.9 1010.0 -9.9 -9.999 -99.9 -99.99 -9.99
2018/06/20 05:42 EDT    1.35   1.86    8  343   10  76.5 -99.9 1010.0 -9.9 -9.999 -99.9 -99.99 -9.99
2018/06/20 05:48 EDT    1.28   1.80    9  344   10  76.5 -99.9 1010.1 -9.9 -9.999 -99.9 -99.99 -9.99
2018/06/20 05:54 EDT    1.20   1.72    9  350   10  76.5 -99.9 1010.0 -9.9 -9.999 -99.9 -99.99 -9.99
2018/06/20 06:00 EDT    1.13   1.68    9    2   10  76.3 -99.9 1009.9 -9.9 -9.999 -99.9 -99.99 -9.99
2018/06/20 06:06 EDT    1.06   1.59    9   10   11  76.3 -99.9 1009.9 -9.9 -9.999 -99.9 -99.99 -9.99
2018/06/20 06:12 EDT    0.99   1.53    8    8   10  76.5 -99.9 1009.9 -9.9 -9.999 -99.9 -99.99 -9.99
2018/06/20 06:18 EDT    0.92   1.48    8    6    9  76.5 -99.9 1009.9 -9.9 -9.999 -99.9 -99.99 -9.99
2018/06/20 06:24 EDT    0.85   1.42    8  353    9  76.6 -99.9 1009.9 -9.9 -9.999 -99.9 -99.99 -9.99
2018/06/20 06:30 EDT    0.78   1.32    8  353    9  76.6 -99.9 1010.0 -9.9 -9.999 -99.9 -99.99 -9.99
2018/06/20 06:36 EDT    0.72   1.26    8  353   10  76.8 -99.9 1010.0 -9.9 -9.999 -99.9 -99.99 -9.99
2018/06/20 06:42 EDT    0.65   1.18    9  349   10  76.8 -99.9 1010.1 -9.9 -9.999 -99.9 -99.99 -9.99
2018/06/20 06:48 EDT    0.59   1.11    9  345   10  77.0 -99.9 1010.1 -9.9 -9.999 -99.9 -99.99 -9.99
2018/06/20 06:54 EDT    0.53   1.06    9  347   11  77.0 -99.9 1010.2 -9.9 -9.999 -99.9 -99.99 -9.99
2018/06/20 07:00 EDT    0.48   0.96    8  345   10  77.0 -99.9 1010.2 -9.9 -9.999 -99.9 -99.99 -9.99
2018/06/20 07:06 EDT    0.42   0.93    8  347    9  77.2 -99.9 1010.2 -9.9 -9.999 -99.9 -99.99 -9.99
2018/06/20 07:12 EDT    0.37   0.85    8  350    9  77.2 -99.9 1010.2 -9.9 -9.999 -99.9 -99.99 -9.99
2018/06/20 07:18 EDT    0.32   0.80    8    1    9  77.2 -99.9 1010.1 -9.9 -9.999 -99.9 -99.99 -9.99
2018/06/20 07:24 EDT    0.27   0.77    8  352    9  77.2 -99.9 1010.2 -9.9 -9.999 -99.9 -99.99 -9.99
2018/06/20 07:30 EDT    0.23   0.72    7  347    8  77.2 -99.9 1010.2 -9.9 -9.999 -99.9 -99.99 -9.99
2018/06/20 07:36 EDT    0.19   0.69    6  340    8  77.4 -99.9 1010.2 -9.9 -9.999 -99.9 -99.99 -9.99
2018/06/20 07:42 EDT    0.15   0.65    6  340    7  77.5 -99.9 1010.3 -9.9 -9.999 -99.9 -99.99 -9.99
2018/06/20 07:48 EDT    0.11   0.62    7  341    8  77.5 -99.9 1010.4 -9.9 -9.999 -99.9 -99.99 -9.99
2018/06/20 07:54 EDT    0.08   0.59    7  343    8  77.7 -99.9 1010.6 -9.9 -9.999 -99.9 -99.99 -9.99
2018/06/20 08:00 EDT    0.05   0.54    6  346    8  77.7 -99.9 1010.6 -9.9 -9.999 -99.9 -99.99 -9.99
2018/06/20 08:06 EDT    0.03   0.50    6  344    7  77.7 -99.9 1010.5 -9.9 -9.999 -99.9 -99.99 -9.99
2018/06/20 08:12 EDT    0.00   0.48    5  340    6  77.7 -99.9 1010.5 -9.9 -9.999 -99.9 -99.99 -9.99
2018/06/20 08:18 EDT   -0.02   0.49    6  354    7  77.7 -99.9 1010.6 -9.9 -9.999 -99.9 -99.99 -9.99
2018/06/20 08:24 EDT   -0.03   0.45    5  346    6  77.9 -99.9 1010.6 -9.9 -9.999 -99.9 -99.99 -9.99
2018/06/20 08:30 EDT   -0.04   0.45    4  341    6  77.9 -99.9 1010.6 -9.9 -9.999 -99.9 -99.99 -9.99
2018/06/20 08:36 EDT   -0.05   0.44    4  342    6  77.9 -99.9 1010.7 -9.9 -9.999 -99.9 -99.99 -9.99
2018/06/20 08:42 EDT   -0.06   0.46    5  345    6  77.9 -99.9 1010.6 -9.9 -9.999 -99.9 -99.99 -9.99
2018/06/20 08:48 EDT   -0.06   0.45    5  354    6  78.1 -99.9 1010.6 -9.9 -9.999 -99.9 -99.99 -9.99
2018/06/20 08:54 EDT   -0.06   0.47    5    4    7  78.1 -99.9 1010.6 -9.9 -9.999 -99.9 -99.99 -9.99
2018/06/20 09:00 EDT   -0.05   0.49    5  360    6  78.3 -99.9 1010.6 -9.9 -9.999 -99.9 -99.99 -9.99
2018/06/20 09:06 EDT   -0.04   0.51    6    4    7  78.1 -99.9 1010.6 -9.9 -9.999 -99.9 -99.99 -9.99
2018/06/20 09:12 EDT   -0.03   0.47    5    9    6  78.3 -99.9 1010.6 -9.9 -9.999 -99.9 -99.99 -9.99
2018/06/20 09:18 EDT   -0.01   0.51    5   10    6  78.3 -99.9 1010.6 -9.9 -9.999 -99.9 -99.99 -9.99
2018/06/20 09:24 EDT    0.01   0.53    4    8    5  78.4 -99.9 1010.6 -9.9 -9.999 -99.9 -99.99 -9.99
2018/06/20 09:30 EDT    0.04   0.59    4  343    4  78.4 -99.9 1010.6 -9.9 -9.999 -99.9 -99.99 -9.99
2018/06/20 09:36 EDT    0.06   0.64    6  337    7  78.4 -99.9 1010.8 -9.9 -9.999 -99.9 -99.99 -9.99
2018/06/20 09:42 EDT    0.09   0.65    7  336    8  78.4 -99.9 1010.8 -9.9 -9.999 -99.9 -99.99 -9.99
2018/06/20 09:48 EDT    0.13   0.71    9  333    9  78.4 -99.9 1010.9 -9.9 -9.999 -99.9 -99.99 -9.99
2018/06/20 09:54 EDT    0.17   0.72    9  334    9  78.3 -99.9 1010.8 -9.9 -9.999 -99.9 -99.99 -9.99
2018/06/20 10:00 EDT    0.21   0.76    8  337    9  78.3 -99.9 1010.8 -9.9 -9.999 -99.9 -99.99 -9.99
2018/06/20 10:06 EDT    0.25   0.77    8  335    9  78.3 -99.9 1010.8 -9.9 -9.999 -99.9 -99.99 -9.99
2018/06/20 10:12 EDT    0.30   0.81   10  336   10  78.1 -99.9 1010.9 -9.9 -9.999 -99.9 -99.99 -9.99
2018/06/20 10:18 EDT    0.35   0.86   10  337   10  78.1 -99.9 1010.8 -9.9 -9.999 -99.9 -99.99 -9.99
2018/06/20 10:24 EDT    0.40   0.86    8  327   10  78.3 -99.9 1010.7 -9.9 -9.999 -99.9 -99.99 -9.99
2018/06/20 10:30 EDT    0.45   0.93    8  321    9  78.1 -99.9 1010.6 -9.9 -9.999 -99.9 -99.99 -9.99
2018/06/20 10:36 EDT    0.51   0.98    8  322    9  78.3 -99.9 1010.6 -9.9 -9.999 -99.9 -99.99 -9.99
2018/06/20 10:42 EDT    0.57   1.06    8  323    9  78.3 -99.9 1010.7 -9.9 -9.999 -99.9 -99.99 -9.99
2018/06/20 10:48 EDT    0.63   1.10    7  324    9  78.4 -99.9 1010.7 -9.9 -9.999 -99.9 -99.99 -9.99
2018/06/20 10:54 EDT    0.70   1.16    7  325    8  78.6 -99.9 1010.8 -9.9 -9.999 -99.9 -99.99 -9.99
2018/06/20 11:00 EDT    0.76   1.24    6  324    8  78.8 -99.9 1010.8 -9.9 -9.999 -99.9 -99.99 -9.99
2018/06/20 11:06 EDT    0.83   1.29    6  326    7  78.8 -99.9 1010.9 -9.9 -9.999 -99.9 -99.99 -9.99
2018/06/20 11:12 EDT    0.90   1.35    6  323    7  78.8 -99.9 1010.9 -9.9 -9.999 -99.9 -99.99 -9.99
2018/06/20 11:18 EDT    0.97   1.43    5  324    7  79.0 -99.9 1010.9 -9.9 -9.999 -99.9 -99.99 -9.99
2018/06/20 11:24 EDT    1.04   1.47    5  325    6  79.0 -99.9 1010.9 -9.9 -9.999 -99.9 -99.99 -9.99
2018/06/20 11:30 EDT    1.11   1.53    6  322    7  79.0 -99.9 1010.9 -9.9 -9.999 -99.9 -99.99 -9.99
2018/06/20 11:36 EDT    1.18   1.63    6  317    7  79.2 -99.9 1010.8 -9.9 -9.999 -99.9 -99.99 -9.99
2018/06/20 11:42 EDT    1.25   1.68    6  319    7  79.2 -99.9 1010.8 -9.9 -9.999 -99.9 -99.99 -9.99
2018/06/20 11:48 EDT    1.33   1.77    5  325    6  79.3 -99.9 1010.7 -9.9 -9.999 -99.9 -99.99 -9.99
2018/06/20 11:54 EDT    1.40   1.82    5  324    6  79.3 -99.9 1010.7 -9.9 -9.999 -99.9 -99.99 -9.99
2018/06/20 12:00 EDT    1.47   1.89    4  335    6  79.5 -99.9 1010.7 -9.9 -9.999 -99.9 -99.99 -9.99
2018/06/20 12:06 EDT    1.55   1.99    4  331    4  79.9 -99.9 1010.7 -9.9 -9.999 -99.9 -99.99 -9.99
2018/06/20 12:12 EDT    1.62   2.05    4  331    5  79.9 -99.9 1010.7 -9.9 -9.999 -99.9 -99.99 -9.99
2018/06/20 12:18 EDT    1.69   2.11    4  337    5  79.9 -99.9 1010.6 -9.9 -9.999 -99.9 -99.99 -9.99
2018/06/20 12:24 EDT    1.76   2.23    4  341    5  79.7 -99.9 1010.5 -9.9 -9.999 -99.9 -99.99 -9.99
2018/06/20 12:30 EDT    1.83   2.29    4  337    4  80.1 -99.9 1010.5 -9.9 -9.999 -99.9 -99.99 -9.99
2018/06/20 12:36 EDT    1.90   2.37    4  348    4  80.1 -99.9 1010.5 -9.9 -9.999 -99.9 -99.99 -9.99
2018/06/20 12:42 EDT    1.97   2.47    4  326    5  80.2 -99.9 1010.4 -9.9 -9.999 -99.9 -99.99 -9.99
2018/06/20 12:48 EDT    2.03   2.52    3  320    4  80.2 -99.9 1010.3 -9.9 -9.999 -99.9 -99.99 -9.99
2018/06/20 12:54 EDT    2.10   2.63    3  327    4  80.6 -99.9 1010.3 -9.9 -9.999 -99.9 -99.99 -9.99
2018/06/20 13:00 EDT    2.16   2.69    3  319    3  80.8 -99.9 1010.2 -9.9 -9.999 -99.9 -99.99 -9.99
2018/06/20 13:06 EDT    2.22   2.75    3  325    4  80.8 -99.9 1010.1 -9.9 -9.999 -99.9 -99.99 -9.99
2018/06/20 13:12 EDT    2.28   2.80    2  324    4  81.1 -99.9 1010.1 -9.9 -9.999 -99.9 -99.99 -9.99
2018/06/20 13:18 EDT    2.33   2.88    3  333    4  81.1 -99.9 1010.1 -9.9 -9.999 -99.9 -99.99 -9.99
2018/06/20 13:24 EDT    2.38   2.90    3  334    3  81.3 -99.9 1010.0 -9.9 -9.999 -99.9 -99.99 -9.99
2018/06/20 13:30 EDT    2.43   2.97    3  337    4  81.1 -99.9 1010.0 -9.9 -9.999 -99.9 -99.99 -9.99
2018/06/20 13:36 EDT    2.48   2.98    3    6    3  81.3 -99.9 1010.0 -9.9 -9.999 -99.9 -99.99 -9.99
2018/06/20 13:42 EDT    2.53   3.02    2   18    3  81.3 -99.9 1009.9 -9.9 -9.999 -99.9 -99.99 -9.99
2018/06/20 13:48 EDT    2.57   3.10    2   59    2  81.5 -99.9 1009.8 -9.9 -9.999 -99.9 -99.99 -9.99
2018/06/20 13:54 EDT    2.61   3.11    2   56    3  81.7 -99.9 1009.7 -9.9 -9.999 -99.9 -99.99 -9.99
2018/06/20 14:00 EDT    2.64   3.12    2   33    2  81.7 -99.9 1009.6 -9.9 -9.999 -99.9 -99.99 -9.99
2018/06/20 14:06 EDT    2.67   3.15    3   68    3  81.5 -99.9 1009.7 -9.9 -9.999 -99.9 -99.99 -9.99
2018/06/20 14:12 EDT    2.70   3.16    2   64    3  81.9 -99.9 1009.7 -9.9 -9.999 -99.9 -99.99 -9.99
2018/06/20 14:18 EDT    2.73   3.19    3   93    4  82.6 -99.9 1009.8 -9.9 -9.999 -99.9 -99.99 -9.99
2018/06/20 14:24 EDT    2.75   3.24    3   91    4  82.8 -99.9 1009.7 -9.9 -9.999 -99.9 -99.99 -9.99
2018/06/20 14:30 EDT    2.78   3.24    3  100    4  83.3 -99.9 1009.7 -9.9 -9.999 -99.9 -99.99 -9.99
2018/06/20 14:36 EDT    2.79   3.28    3  105    5  82.9 -99.9 1009.6 -9.9 -9.999 -99.9 -99.99 -9.99
2018/06/20 14:42 EDT    2.81   3.28    3  103    5  82.9 -99.9 1009.5 -9.9 -9.999 -99.9 -99.99 -9.99
2018/06/20 14:48 EDT    2.82   3.31    4   84    5  82.6 -99.9 1009.5 -9.9 -9.999 -99.9 -99.99 -9.99
2018/06/20 14:54 EDT    2.83   3.30    4   93    5  82.6 -99.9 1009.4 -9.9 -9.999 -99.9 -99.99 -9.99
2018/06/20 15:00 EDT    2.84   3.27    4  101    5  82.6 -99.9 1009.4 -9.9 -9.999 -99.9 -99.99 -9.99
2018/06/20 15:06 EDT    2.84   3.27    5   94    6  82.4 -99.9 1009.2 -9.9 -9.999 -99.9 -99.99 -9.99
2018/06/20 15:12 EDT    2.84   3.28    5   99    6  82.2 -99.9 1009.2 -9.9 -9.999 -99.9 -99.99 -9.99
2018/06/20 15:18 EDT    2.84   3.27    6  100    7  82.0 -99.9 1009.1 -9.9 -9.999 -99.9 -99.99 -9.99
2018/06/20 15:24 EDT    2.83   3.26    5   99    7  82.2 -99.9 1008.9 -9.9 -9.999 -99.9 -99.99 -9.99
2018/06/20 15:30 EDT    2.83   3.26    6  110    7  82.0 -99.9 1008.7 -9.9 -9.999 -99.9 -99.99 -9.99
2018/06/20 15:36 EDT    2.81   3.24    6  111    7  82.0 -99.9 1008.5 -9.9 -9.999 -99.9 -99.99 -9.99
2018/06/20 15:42 EDT    2.80   3.21    6  114    7  81.9 -99.9 1008.4 -9.9 -9.999 -99.9 -99.99 -9.99
2018/06/20 15:48 EDT    2.79   3.21    7  117    9  81.1 -99.9 1008.5 -9.9 -9.999 -99.9 -99.99 -9.99
2018/06/20 15:54 EDT    2.77   3.19    7  107    8  81.3 -99.9 1008.6 -9.9 -9.999 -99.9 -99.99 -9.99
2018/06/20 16:00 EDT    2.74   3.17    6  105    8  80.8 -99.9 1008.6 -9.9 -9.999 -99.9 -99.99 -9.99
2018/06/20 16:06 EDT    2.72   3.15    7  118    9  80.4 -99.9 1008.4 -9.9 -9.999 -99.9 -99.99 -9.99
2018/06/20 16:12 EDT    2.69   3.09    6  130    8  80.4 -99.9 1008.6 -9.9 -9.999 -99.9 -99.99 -9.99
2018/06/20 16:18 EDT    2.66   3.09    7  132    9  80.4 -99.9 1008.7 -9.9 -9.999 -99.9 -99.99 -9.99
2018/06/20 16:24 EDT    2.63   3.07    8  134    9  80.2 -99.9 1008.7 -9.9 -9.999 -99.9 -99.99 -9.99
2018/06/20 16:30 EDT    2.59   3.05    9  130   10  80.1 -99.9 1008.5 -9.9 -9.999 -99.9 -99.99 -9.99
2018/06/20 16:36 EDT    2.56   3.00   11  132   12  79.9 -99.9 1008.5 -9.9 -9.999 -99.9 -99.99 -9.99
2018/06/20 16:42 EDT    2.51   2.96   11  136   12  79.7 -99.9 1008.3 -9.9 -9.999 -99.9 -99.99 -9.99
2018/06/20 16:48 EDT    2.47   2.93   11  143   13  79.9 -99.9 1008.4 -9.9 -9.999 -99.9 -99.99 -9.99
2018/06/20 16:54 EDT    2.42   2.89   10  133   12  79.9 -99.9 1008.2 -9.9 -9.999 -99.9 -99.99 -9.99
2018/06/20 17:00 EDT    2.37   2.86    9  135   11  80.1 -99.9 1007.9 -9.9 -9.999 -99.9 -99.99 -9.99
2018/06/20 17:06 EDT    2.32   2.80   11  139   12  80.1 -99.9 1007.8 -9.9 -9.999 -99.9 -99.99 -9.99
2018/06/20 17:12 EDT    2.27   2.76   10  140   12  80.1 -99.9 1007.9 -9.9 -9.999 -99.9 -99.99 -9.99
2018/06/20 17:18 EDT    2.21   2.73   10  144   12  80.1 -99.9 1008.0 -9.9 -9.999 -99.9 -99.99 -9.99
2018/06/20 17:24 EDT    2.15   2.66   12  148   14  80.1 -99.9 1008.1 -9.9 -9.999 -99.9 -99.99 -9.99
2018/06/20 17:30 EDT    2.09   2.61   12  153   15  80.2 -99.9 1008.1 -9.9 -9.999 -99.9 -99.99 -9.99
2018/06/20 17:36 EDT    2.03   2.53   11  155   13  80.1 -99.9 1008.1 -9.9 -9.999 -99.9 -99.99 -9.99
2018/06/20 17:42 EDT    1.96   2.47   11  153   14  80.4 -99.9 1008.2 -9.9 -9.999 -99.9 -99.99 -9.99
2018/06/20 17:48 EDT    1.90   2.41   11  155   13  80.6 -99.9 1008.2 -9.9 -9.999 -99.9 -99.99 -9.99
2018/06/20 17:54 EDT    1.83   2.35   10  155   13  81.0 -99.9 1008.0 -9.9 -9.999 -99.9 -99.99 -9.99
2018/06/20 18:00 EDT    1.77   2.27   12  154   14  80.6 -99.9 1007.7 -9.9 -9.999 -99.9 -99.99 -9.99
2018/06/20 18:06 EDT    1.70   2.20   10  153   14  80.2 -99.9 1007.8 -9.9 -9.999 -99.9 -99.99 -9.99
2018/06/20 18:12 EDT    1.63   2.13   10  156   12  80.1 -99.9 1007.8 -9.9 -9.999 -99.9 -99.99 -9.99
2018/06/20 18:18 EDT    1.56   2.07   10  157   12  80.1 -99.9 1007.8 -9.9 -9.999 -99.9 -99.99 -9.99
2018/06/20 18:24 EDT    1.49   2.01    9  160   11  80.1 -99.9 1008.0 -9.9 -9.999 -99.9 -99.99 -9.99
2018/06/20 18:30 EDT    1.42   1.97    9  161   11  80.1 -99.9 1008.1 -9.9 -9.999 -99.9 -99.99 -9.99
2018/06/20 18:36 EDT    1.35   1.84    9  158   11  80.1 -99.9 1008.2 -9.9 -9.999 -99.9 -99.99 -9.99
2018/06/20 18:42 EDT    1.29   1.79    9  158   11  79.9 -99.9 1008.0 -9.9 -9.999 -99.9 -99.99 -9.99
2018/06/20 18:48 EDT    1.22   1.70   10  161   11  79.9 -99.9 1007.9 -9.9 -9.999 -99.9 -99.99 -9.99
2018/06/20 18:54 EDT    1.15   1.65   10  158   11  79.9 -99.9 1008.1 -9.9 -9.999 -99.9 -99.99 -9.99
2018/06/20 19:00 EDT    1.09   1.58    7  166   11  80.1 -99.9 1008.2 -9.9 -9.999 -99.9 -99.99 -9.99
2018/06/20 19:06 EDT    1.02   1.52    5  166    7  80.6 -99.9 1008.3 -9.9 -9.999 -99.9 -99.99 -9.99
2018/06/20 19:12 EDT    0.96   1.44    7  169    9  80.1 -99.9 1008.3 -9.9 -9.999 -99.9 -99.99 -9.99
2018/06/20 19:18 EDT    0.90   1.42    4  176    8  80.1 -99.9 1008.1 -9.9 -9.999 -99.9 -99.99 -9.99
2018/06/20 19:24 EDT    0.84   1.33    4  149    4  80.1 -99.9 1008.0 -9.9 -9.999 -99.9 -99.99 -9.99
2018/06/20 19:30 EDT    0.79   1.31    5  134    7  80.1 -99.9 1007.9 -9.9 -9.999 -99.9 -99.99 -9.99
2018/06/20 19:36 EDT    0.73   1.24    4  194    4  79.9 -99.9 1008.0 -9.9 -9.999 -99.9 -99.99 -9.99
2018/06/20 19:42 EDT    0.68   1.20    3  219    4  80.2 -99.9 1008.2 -9.9 -9.999 -99.9 -99.99 -9.99
2018/06/20 19:48 EDT    0.63   1.15    1  241    3  80.2 -99.9 1008.2 -9.9 -9.999 -99.9 -99.99 -9.99
2018/06/20 19:54 EDT    0.58   1.08    2  225    4  80.1 -99.9 1008.0 -9.9 -9.999 -99.9 -99.99 -9.99
2018/06/20 20:00 EDT    0.54   1.05    2  230    3  79.9 -99.9 1007.9 -9.9 -9.999 -99.9 -99.99 -9.99
2018/06/20 20:06 EDT    0.50   1.01    2  225    3  79.7 -99.9 1008.0 -9.9 -9.999 -99.9 -99.99 -9.99
2018/06/20 20:12 EDT    0.46   1.02    4  224    5  79.7 -99.9 1008.1 -9.9 -9.999 -99.9 -99.99 -9.99
2018/06/20 20:18 EDT    0.42   0.97    4  213    5  79.7 -99.9 1008.0 -9.9 -9.999 -99.9 -99.99 -9.99
2018/06/20 20:24 EDT    0.39   0.94    4  228    5  79.7 -99.9 1008.0 -9.9 -9.999 -99.9 -99.99 -9.99
2018/06/20 20:30 EDT    0.35   0.89    4  232    7  79.3 -99.9 1007.8 -9.9 -9.999 -99.9 -99.99 -9.99
2018/06/20 20:36 EDT    0.33   0.87    3  227    6  79.2 -99.9 1007.6 -9.9 -9.999 -99.9 -99.99 -9.99
2018/06/20 20:42 EDT    0.30   0.85    5  202    6  79.0 -99.9 1007.5 -9.9 -9.999 -99.9 -99.99 -9.99
2018/06/20 20:48 EDT    0.28   0.83    7  189    9  78.3 -99.9 1007.5 -9.9 -9.999 -99.9 -99.99 -9.99
2018/06/20 20:54 EDT    0.26   0.81   10  190   11  79.0 -99.9 1007.6 -9.9 -9.999 -99.9 -99.99 -9.99
2018/06/20 21:00 EDT    0.25   0.79   11  191   13  79.3 -99.9 1007.7 -9.9 -9.999 -99.9 -99.99 -9.99
2018/06/20 21:06 EDT    0.24   0.78   15  197   18  79.2 -99.9 1008.0 -9.9 -9.999 -99.9 -99.99 -9.99
2018/06/20 21:12 EDT    0.23   0.80   17  202   20  79.2 -99.9 1008.4 -9.9 -9.999 -99.9 -99.99 -9.99
2018/06/20 21:18 EDT    0.22   0.82   13  204   18  78.8 -99.9 1008.6 -9.9 -9.999 -99.9 -99.99 -9.99
2018/06/20 21:24 EDT    0.22   0.83   13  200   16  78.6 -99.9 1008.7 -9.9 -9.999 -99.9 -99.99 -9.99
2018/06/20 21:30 EDT    0.22   0.80   12  206   15  78.4 -99.9 1008.8 -9.9 -9.999 -99.9 -99.99 -9.99
2018/06/20 21:36 EDT    0.23   0.79   13  211   15  78.1 -99.9 1008.8 -9.9 -9.999 -99.9 -99.99 -9.99
2018/06/20 21:42 EDT    0.24   0.81   11  221   14  78.1 -99.9 1008.8 -9.9 -9.999 -99.9 -99.99 -9.99
2018/06/20 21:48 EDT    0.25   0.84   12  216   15  78.1 -99.9 1008.6 -9.9 -9.999 -99.9 -99.99 -9.99
2018/06/20 21:54 EDT    0.26   0.86   13  220   16  77.7 -99.9 1008.7 -9.9 -9.999 -99.9 -99.99 -9.99
2018/06/20 22:00 EDT    0.28   0.90   13  220   17  77.7 -99.9 1008.7 -9.9 -9.999 -99.9 -99.99 -9.99
2018/06/20 22:06 EDT    0.30   0.88   11  221   15  77.9 -99.9 1008.7 -9.9 -9.999 -99.9 -99.99 -9.99
2018/06/20 22:12 EDT    0.33   0.93   12  217   16  77.7 -99.9 1008.6 -9.9 -9.999 -99.9 -99.99 -9.99
2018/06/20 22:18 EDT    0.36   0.94   11  217   14  77.7 -99.9 1008.6 -9.9 -9.999 -99.9 -99.99 -9.99
2018/06/20 22:24 EDT    0.39   0.96    9  218   13  77.5 -99.9 1008.6 -9.9 -9.999 -99.9 -99.99 -9.99
2018/06/20 22:30 EDT    0.42   0.98   11  217   16  77.5 -99.9 1008.5 -9.9 -9.999 -99.9 -99.99 -9.99
2018/06/20 22:36 EDT    0.46   1.00    8  219   12  77.5 -99.9 1008.6 -9.9 -9.999 -99.9 -99.99 -9.99
2018/06/20 22:42 EDT    0.50   1.05   11  226   13  77.4 -99.9 1008.6 -9.9 -9.999 -99.9 -99.99 -9.99
2018/06/20 22:48 EDT    0.54   1.11   10  225   13  77.2 -99.9 1008.6 -9.9 -9.999 -99.9 -99.99 -9.99
2018/06/20 22:54 EDT    0.59   1.12   10  233   13  77.0 -99.9 1008.6 -9.9 -9.999 -99.9 -99.99 -9.99
2018/06/20 23:00 EDT    0.63   1.18   10  227   15  76.8 -99.9 1008.5 -9.9 -9.999 -99.9 -99.99 -9.99
2018/06/20 23:06 EDT    0.68   1.24   10  234   14  76.6 -99.9 1008.6 -9.9 -9.999 -99.9 -99.99 -9.99
2018/06/20 23:12 EDT    0.73   1.30    8  234   13  76.6 -99.9 1008.6 -9.9 -9.999 -99.9 -99.99 -9.99
2018/06/20 23:18 EDT    0.78   1.34    8  235   11  76.6 -99.9 1008.8 -9.9 -9.999 -99.9 -99.99 -9.99
2018/06/20 23:24 EDT    0.84   1.37   11  242   13  76.5 -99.9 1008.7 -9.9 -9.999 -99.9 -99.99 -9.99
2018/06/20 23:30 EDT    0.89   1.42    7  234   12  76.5 -99.9 1008.5 -9.9 -9.999 -99.9 -99.99 -9.99
2018/06/20 23:36 EDT    0.95   1.51    7  231   11  76.5 -99.9 1008.3 -9.9 -9.999 -99.9 -99.99 -9.99
2018/06/20 23:42 EDT    1.01   1.56    8  234   10  76.5 -99.9 1008.4 -9.9 -9.999 -99.9 -99.99 -9.99
2018/06/20 23:48 EDT    1.07   1.66    7  235   10  76.5 -99.9 1008.4 -9.9 -9.999 -99.9 -99.99 -9.99
2018/06/20 23:54 EDT    1.13   1.74    7  240   10  76.5 -99.9 1008.4 -9.9 -9.999 -99.9 -99.99 -9.99
2018/06/21 00:00 EDT    1.19   1.81    9  231   11  76.5 -99.9 1008.2 -9.9 -9.999 -99.9 -99.99 -9.99
2018/06/21 00:06 EDT    1.25   1.86    9  231   12  76.6 -99.9 1008.2 -9.9 -9.999 -99.9 -99.99 -9.99
2018/06/21 00:12 EDT    1.32   2.00    9  240   11  76.5 -99.9 1008.3 -9.9 -9.999 -99.9 -99.99 -9.99
2018/06/21 00:18 EDT    1.38   2.10   15  293   18  76.6 -99.9 1008.9 -9.9 -9.999 -99.9 -99.99 -9.99
2018/06/21 00:24 EDT    1.44   2.10   11  271   17  76.6 -99.9 1008.6 -9.9 -9.999 -99.9 -99.99 -9.99
2018/06/21 00:30 EDT    1.50   2.16   15  288   17  77.0 -99.9 1008.6 -9.9 -9.999 -99.9 -99.99 -9.99
2018/06/21 00:36 EDT    1.57   2.23   14  299   17  76.5 -99.9 1008.5 -9.9 -9.999 -99.9 -99.99 -9.99
2018/06/21 00:42 EDT    1.63   2.33   15  285   18  76.3 -99.9 1008.4 -9.9 -9.999 -99.9 -99.99 -9.99
2018/06/21 00:48 EDT    1.69   2.38   14  279   17  76.3 -99.9 1008.3 -9.9 -9.999 -99.9 -99.99 -9.99
2018/06/21 00:54 EDT    1.75   2.42   15  271   18  76.1 -99.9 1008.2 -9.9 -9.999 -99.9 -99.99 -9.99
2018/06/21 01:00 EDT    1.81   2.45   15  265   17  75.9 -99.9 1008.1 -9.9 -9.999 -99.9 -99.99 -9.99
2018/06/21 01:06 EDT    1.87   2.49   15  266   17  75.7 -99.9 1008.0 -9.9 -9.999 -99.9 -99.99 -9.99
2018/06/21 01:12 EDT    1.93   2.55   17  257   20  75.9 -99.9 1007.9 -9.9 -9.999 -99.9 -99.99 -9.99
2018/06/21 01:18 EDT    1.98   2.62   16  247   19  75.9 -99.9 1007.8 -9.9 -9.999 -99.9 -99.99 -9.99
2018/06/21 01:24 EDT    2.04   2.70   13  247   15  76.1 -99.9 1007.7 -9.9 -9.999 -99.9 -99.99 -9.99
2018/06/21 01:30 EDT    2.09   2.71   13  257   17  76.1 -99.9 1007.8 -9.9 -9.999 -99.9 -99.99 -9.99
2018/06/21 01:36 EDT    2.14   2.75   14  251   16  76.1 -99.9 1007.8 -9.9 -9.999 -99.9 -99.99 -9.99
2018/06/21 01:42 EDT    2.19   2.80   14  253   16  76.1 -99.9 1007.8 -9.9 -9.999 -99.9 -99.99 -9.99
2018/06/21 01:48 EDT    2.23   2.86   13  256   14  76.1 -99.9 1007.5 -9.9 -9.999 -99.9 -99.99 -9.99
2018/06/21 01:54 EDT    2.28   2.91   11  255   13  76.3 -99.9 1007.5 -9.9 -9.999 -99.9 -99.99 -9.99
2018/06/21 02:00 EDT    2.32   2.93   10  256   12  76.1 -99.9 1007.4 -9.9 -9.999 -99.9 -99.99 -9.99
2018/06/21 02:06 EDT    2.36   2.99    9  251   12  75.9 -99.9 1007.3 -9.9 -9.999 -99.9 -99.99 -9.99
2018/06/21 02:12 EDT    2.39   3.01   10  252   11  76.1 -99.9 1007.2 -9.9 -9.999 -99.9 -99.99 -9.99
2018/06/21 02:18 EDT    2.43   3.07    7  235   10  76.5 -99.9 1007.0 -9.9 -9.999 -99.9 -99.99 -9.99
2018/06/21 02:24 EDT    2.46   3.09    8  234   10  76.8 -99.9 1006.9 -9.9 -9.999 -99.9 -99.99 -9.99
2018/06/21 02:30 EDT    2.48   3.11    7  236   10  76.8 -99.9 1006.9 -9.9 -9.999 -99.9 -99.99 -9.99
2018/06/21 02:36 EDT    2.51   3.17    7  236    9  76.8 -99.9 1006.9 -9.9 -9.999 -99.9 -99.99 -9.99
2018/06/21 02:42 EDT    2.53   3.17    9  230   12  76.8 -99.9 1006.9 -9.9 -9.999 -99.9 -99.99 -9.99
2018/06/21 02:48 EDT    2.55   3.19    9  245   11  76.6 -99.9 1007.0 -9.9 -9.999 -99.9 -99.99 -9.99
2018/06/21 02:54 EDT    2.57   3.20    8  230   10  76.5 -99.9 1006.8 -9.9 -9.999 -99.9 -99.99 -9.99
2018/06/21 03:00 EDT    2.58   3.27    8  229   11  76.3 -99.9 1006.9 -9.9 -9.999 -99.9 -99.99 -9.99
2018/06/21 03:06 EDT    2.59   3.31    9  243   11  76.1 -99.9 1006.9 -9.9 -9.999 -99.9 -99.99 -9.99
2018/06/21 03:12 EDT    2.60   3.29   12  246   13  76.1 -99.9 1006.7 -9.9 -9.999 -99.9 -99.99 -9.99
2018/06/21 03:18 EDT    2.61   3.28    9  242   12  76.3 -99.9 1006.6 -9.9 -9.999 -99.9 -99.99 -9.99
2018/06/21 03:24 EDT    2.61   3.30    9  243   12  76.5 -99.9 1006.4 -9.9 -9.999 -99.9 -99.99 -9.99
2018/06/21 03:30 EDT    2.61   3.32   12  249   13  76.5 -99.9 1006.4 -9.9 -9.999 -99.9 -99.99 -9.99
2018/06/21 03:36 EDT    2.61   3.32   13  250   15  76.5 -99.9 1006.3 -9.9 -9.999 -99.9 -99.99 -9.99
2018/06/21 03:42 EDT    2.60   3.33   12  249   14  76.3 -99.9 1006.3 -9.9 -9.999 -99.9 -99.99 -9.99
2018/06/21 03:48 EDT    2.59   3.32   11  248   13  76.3 -99.9 1006.2 -9.9 -9.999 -99.9 -99.99 -9.99
2018/06/21 03:54 EDT    2.58   3.29   12  248   14  76.3 -99.9 1006.2 -9.9 -9.999 -99.9 -99.99 -9.99
2018/06/21 04:00 EDT    2.57   3.32   12  254   14  76.1 -99.9 1006.2 -9.9 -9.999 -99.9 -99.99 -9.99
2018/06/21 04:06 EDT    2.56   3.30   11  262   14  76.1 -99.9 1006.3 -9.9 -9.999 -99.9 -99.99 -9.99
2018/06/21 04:12 EDT    2.54   3.27   11  262   13  76.1 -99.9 1006.3 -9.9 -9.999 -99.9 -99.99 -9.99
2018/06/21 04:18 EDT    2.52   3.19   10  259   12  76.1 -99.9 1006.4 -9.9 -9.999 -99.9 -99.99 -9.99
2018/06/21 04:24 EDT    2.49   3.20    8  267   11  75.9 -99.9 1006.4 -9.9 -9.999 -99.9 -99.99 -9.99
2018/06/21 04:30 EDT    2.47   3.18    9  261   10  76.1 -99.9 1006.5 -9.9 -9.999 -99.9 -99.99 -9.99
2018/06/21 04:36 EDT    2.44   3.20    8  269    9  76.1 -99.9 1006.5 -9.9 -9.999 -99.9 -99.99 -9.99
2018/06/21 04:42 EDT    2.41   3.15   12  284   14  76.1 -99.9 1006.6 -9.9 -9.999 -99.9 -99.99 -9.99
2018/06/21 04:48 EDT    2.37   3.11   10  276   13  76.3 -99.9 1006.7 -9.9 -9.999 -99.9 -99.99 -9.99
2018/06/21 04:54 EDT    2.34   3.06   10  268   11  76.3 -99.9 1006.6 -9.9 -9.999 -99.9 -99.99 -9.99
2018/06/21 05:00 EDT    2.30   3.02    8  279   11  76.3 -99.9 1006.6 -9.9 -9.999 -99.9 -99.99 -9.99
2018/06/21 05:06 EDT    2.26   2.98    6  291    9  76.1 -99.9 1006.5 -9.9 -9.999 -99.9 -99.99 -9.99
2018/06/21 05:12 EDT    2.21   2.93    6  292    7  75.9 -99.9 1006.6 -9.9 -9.999 -99.9 -99.99 -9.99
2018/06/21 05:18 EDT    2.17   2.86    7  295    8  75.7 -99.9 1006.6 -9.9 -9.999 -99.9 -99.99 -9.99
2018/06/21 05:24 EDT    2.12   2.75    7  290    9  75.7 -99.9 1006.6 -9.9 -9.999 -99.9 -99.99 -9.99
2018/06/21 05:30 EDT    2.07   2.71    6  283    8  75.7 -99.9 1006.6 -9.9 -9.999 -99.9 -99.99 -9.99
2018/06/21 05:36 EDT    2.01   2.67    7  285    9  75.7 -99.9 1006.6 -9.9 -9.999 -99.9 -99.99 -9.99
2018/06/21 05:42 EDT    1.95   2.61    7  283    8  75.7 -99.9 1006.6 -9.9 -9.999 -99.9 -99.99 -9.99
2018/06/21 05:48 EDT    1.90   2.56    6  264    7  75.7 -99.9 1006.5 -9.9 -9.999 -99.9 -99.99 -9.99
2018/06/21 05:54 EDT    1.84   2.51    7  267    7  75.7 -99.9 1006.6 -9.9 -9.999 -99.9 -99.99 -9.99
2018/06/21 06:00 EDT    1.77   2.50    7  265    8  75.9 -99.9 1006.7 -9.9 -9.999 -99.9 -99.99 -9.99
2018/06/21 06:06 EDT    1.71   2.42    7  271    8  75.9 -99.9 1006.9 -9.9 -9.999 -99.9 -99.99 -9.99
2018/06/21 06:12 EDT    1.65   2.39    6  266    8  76.1 -99.9 1006.8 -9.9 -9.999 -99.9 -99.99 -9.99
2018/06/21 06:18 EDT    1.58   2.34    7  257    9  76.3 -99.9 1006.9 -9.9 -9.999 -99.9 -99.99 -9.99
2018/06/21 06:24 EDT    1.51   2.26    5  227    8  76.1 -99.9 1007.0 -9.9 -9.999 -99.9 -99.99 -9.99
2018/06/21 06:30 EDT    1.44   2.21 -999 -999 -999 -99.9 -99.9 -999.9 -9.9 -9.999 -99.9 -99.99 -9.99
2018/06/21 06:36 EDT    1.38   2.15    5  240    8  76.1 -99.9 1007.1 -9.9 -9.999 -99.9 -99.99 -9.99
2018/06/21 06:42 EDT    1.31   2.06    5  242    7  76.1 -99.9 1007.2 -9.9 -9.999 -99.9 -99.99 -9.99
2018/06/21 06:48 EDT    1.24   2.00    5  238    7  76.3 -99.9 1007.2 -9.9 -9.999 -99.9 -99.99 -9.99
2018/06/21 06:54 EDT    1.17   1.95    6  247    7  76.1 -99.9 1007.1 -9.9 -9.999 -99.9 -99.99 -9.99
2018/06/21 07:00 EDT    1.10   1.90    4  238    7  76.3 -99.9 1007.1 -9.9 -9.999 -99.9 -99.99 -9.99
2018/06/21 07:06 EDT    1.03   1.87    4  233    6  76.5 -99.9 1007.1 -9.9 -9.999 -99.9 -99.99 -9.99
2018/06/21 07:12 EDT    0.97   1.76    4  235    6  76.6 -99.9 1007.1 -9.9 -9.999 -99.9 -99.99 -9.99
2018/06/21 07:18 EDT    0.90   1.71    5  236    6  76.6 -99.9 1007.2 -9.9 -9.999 -99.9 -99.99 -9.99
2018/06/21 07:24 EDT    0.84   1.60    6  238    7  76.6 -99.9 1007.2 -9.9 -9.999 -99.9 -99.99 -9.99
2018/06/21 07:30 EDT    0.77   1.53    7  247    8  76.5 -99.9 1007.2 -9.9 -9.999 -99.9 -99.99 -9.99
2018/06/21 07:36 EDT    0.71   1.48    5  237    8  76.5 -99.9 1007.2 -9.9 -9.999 -99.9 -99.99 -9.99
2018/06/21 07:42 EDT    0.65   1.40    4  239    7  76.6 -99.9 1007.2 -9.9 -9.999 -99.9 -99.99 -9.99
2018/06/21 07:48 EDT    0.59   1.35    7  250    7  76.5 -99.9 1007.3 -9.9 -9.999 -99.9 -99.99 -9.99
2018/06/21 07:54 EDT    0.54   1.30    5  241    7  76.6 -99.9 1007.3 -9.9 -9.999 -99.9 -99.99 -9.99
2018/06/21 08:00 EDT    0.48   1.27    6  240    7  76.8 -99.9 1007.3 -9.9 -9.999 -99.9 -99.99 -9.99
2018/06/21 08:06 EDT    0.43   1.20    8  247   10  76.8 -99.9 1007.3 -9.9 -9.999 -99.9 -99.99 -9.99
2018/06/21 08:12 EDT    0.38   1.19    9  249   10  76.8 -99.9 1007.2 -9.9 -9.999 -99.9 -99.99 -9.99
2018/06/21 08:18 EDT    0.34   1.13    5  234    9  77.2 -99.9 1007.1 -9.9 -9.999 -99.9 -99.99 -9.99
2018/06/21 08:24 EDT    0.29   1.10    4  237    9  77.4 -99.9 1007.1 -9.9 -9.999 -99.9 -99.99 -9.99
2018/06/21 08:30 EDT    0.25   1.08    8  250   10  77.2 -99.9 1007.1 -9.9 -9.999 -99.9 -99.99 -9.99
2018/06/21 08:36 EDT    0.21   1.03    6  225    9  77.5 -99.9 1007.1 -9.9 -9.999 -99.9 -99.99 -9.99
2018/06/21 08:42 EDT    0.18   0.98    6  229    8  77.7 -99.9 1007.1 -9.9 -9.999 -99.9 -99.99 -9.99
2018/06/21 08:48 EDT    0.15   0.98    6  224    8  77.9 -99.9 1007.2 -9.9 -9.999 -99.9 -99.99 -9.99
2018/06/21 08:54 EDT    0.12   0.95    4  240    8  78.3 -99.9 1007.3 -9.9 -9.999 -99.9 -99.99 -9.99
2018/06/21 09:00 EDT    0.09   0.93    8  255    9  77.9 -99.9 1007.3 -9.9 -9.999 -99.9 -99.99 -9.99
2018/06/21 09:06 EDT    0.07   0.93    7  254    9  77.7 -99.9 1007.3 -9.9 -9.999 -99.9 -99.99 -9.99
2018/06/21 09:12 EDT    0.05   0.89    7  249    9  77.9 -99.9 1007.3 -9.9 -9.999 -99.9 -99.99 -9.99
2018/06/21 09:18 EDT    0.03   0.89    7  256    8  77.9 -99.9 1007.4 -9.9 -9.999 -99.9 -99.99 -9.99
2018/06/21 09:24 EDT    0.02   0.87    8  264    9  77.9 -99.9 1007.4 -9.9 -9.999 -99.9 -99.99 -9.99
2018/06/21 09:30 EDT    0.01   0.87    7  270    9  78.1 -99.9 1007.4 -9.9 -9.999 -99.9 -99.99 -9.99
2018/06/21 09:36 EDT    0.01   0.83    7  272    9  78.1 -99.9 1007.4 -9.9 -9.999 -99.9 -99.99 -9.99
2018/06/21 09:42 EDT    0.00   0.83   10  269   11  78.1 -99.9 1007.3 -9.9 -9.999 -99.9 -99.99 -9.99
2018/06/21 09:48 EDT    0.00   0.83   10  274   11  78.1 -99.9 1007.3 -9.9 -9.999 -99.9 -99.99 -9.99
2018/06/21 09:54 EDT    0.01   0.79    9  269   10  78.1 -99.9 1007.3 -9.9 -9.999 -99.9 -99.99 -9.99
2018/06/21 10:00 EDT    0.02   0.83    9  270   11  78.3 -99.9 1007.3 -9.9 -9.999 -99.9 -99.99 -9.99
2018/06/21 10:06 EDT    0.03   0.84   10  267   10  78.1 -99.9 1007.3 -9.9 -9.999 -99.9 -99.99 -9.99
2018/06/21 10:12 EDT    0.05   0.85    8  271   10  78.3 -99.9 1007.2 -9.9 -9.999 -99.9 -99.99 -9.99
2018/06/21 10:18 EDT    0.06   0.88    8  266   10  78.4 -99.9 1007.2 -9.9 -9.999 -99.9 -99.99 -9.99
2018/06/21 10:24 EDT    0.09   0.89    9  267   10  78.4 -99.9 1007.2 -9.9 -9.999 -99.9 -99.99 -9.99
2018/06/21 10:30 EDT    0.11   0.95    9  266   10  78.6 -99.9 1007.2 -9.9 -9.999 -99.9 -99.99 -9.99
2018/06/21 10:36 EDT    0.14   0.98    9  267   10  78.6 -99.9 1007.3 -9.9 -9.999 -99.9 -99.99 -9.99
2018/06/21 10:42 EDT    0.17   0.99    8  265    9  78.8 -99.9 1007.3 -9.9 -9.999 -99.9 -99.99 -9.99
2018/06/21 10:48 EDT    0.21   1.03    8  261   10  78.8 -99.9 1007.3 -9.9 -9.999 -99.9 -99.99 -9.99
2018/06/21 10:54 EDT    0.25   1.08    8  267    9  79.0 -99.9 1007.3 -9.9 -9.999 -99.9 -99.99 -9.99
2018/06/21 11:00 EDT    0.29   1.14    6  262    8  79.0 -99.9 1007.3 -9.9 -9.999 -99.9 -99.99 -9.99
2018/06/21 11:06 EDT    0.33   1.20    6  264    7  79.3 -99.9 1007.4 -9.9 -9.999 -99.9 -99.99 -9.99
2018/06/21 11:12 EDT    0.38   1.25    6  270    7  79.3 -99.9 1007.4 -9.9 -9.999 -99.9 -99.99 -9.99
2018/06/21 11:18 EDT    0.43   1.29    6  274    7  79.3 -99.9 1007.5 -9.9 -9.999 -99.9 -99.99 -9.99
2018/06/21 11:24 EDT    0.48   1.38    6  279    7  79.5 -99.9 1007.6 -9.9 -9.999 -99.9 -99.99 -9.99
2018/06/21 11:30 EDT    0.53   1.41    6  277    7  79.5 -99.9 1007.5 -9.9 -9.999 -99.9 -99.99 -9.99
2018/06/21 11:36 EDT    0.59   1.49    5  272    6  79.5 -99.9 1007.5 -9.9 -9.999 -99.9 -99.99 -9.99
2018/06/21 11:42 EDT    0.64   1.52    5  271    5  79.9 -99.9 1007.6 -9.9 -9.999 -99.9 -99.99 -9.99
2018/06/21 11:48 EDT    0.70   1.58    4  272    6  80.1 -99.9 1007.6 -9.9 -9.999 -99.9 -99.99 -9.99
2018/06/21 11:54 EDT    0.77   1.60    4  259    5  80.2 -99.9 1007.5 -9.9 -9.999 -99.9 -99.99 -9.99
2018/06/21 12:00 EDT    0.83   1.66    3  283    4  80.6 -99.9 1007.5 -9.9 -9.999 -99.9 -99.99 -9.99
2018/06/21 12:06 EDT    0.89   1.71    3  284    4  80.6 -99.9 1007.5 -9.9 -9.999 -99.9 -99.99 -9.99
2018/06/21 12:12 EDT    0.96   1.78    3  300    4  81.0 -99.9 1007.5 -9.9 -9.999 -99.9 -99.99 -9.99
2018/06/21 12:18 EDT    1.03   1.83    3  318    4  81.0 -99.9 1007.5 -9.9 -9.999 -99.9 -99.99 -9.99
2018/06/21 12:24 EDT    1.09   1.91    3  344    4  80.8 -99.9 1007.5 -9.9 -9.999 -99.9 -99.99 -9.99
2018/06/21 12:30 EDT    1.16   1.99    2  328    4  81.0 -99.9 1007.4 -9.9 -9.999 -99.9 -99.99 -9.99
2018/06/21 12:36 EDT    1.23   2.05    2    7    3  81.1 -99.9 1007.4 -9.9 -9.999 -99.9 -99.99 -9.99
2018/06/21 12:42 EDT    1.30   2.11    2  352    3  81.3 -99.9 1007.3 -9.9 -9.999 -99.9 -99.99 -9.99
2018/06/21 12:48 EDT    1.37   2.18    3  357    3  81.3 -99.9 1007.4 -9.9 -9.999 -99.9 -99.99 -9.99
2018/06/21 12:54 EDT    1.44   2.29    2  340    3  81.3 -99.9 1007.4 -9.9 -9.999 -99.9 -99.99 -9.99
2018/06/21 13:00 EDT    1.52   2.37    1  349    3  82.0 -99.9 1007.4 -9.9 -9.999 -99.9 -99.99 -9.99
2018/06/21 13:06 EDT    1.59   2.42    0   18    2  82.9 -99.9 1007.4 -9.9 -9.999 -99.9 -99.99 -9.99
2018/06/21 13:12 EDT    1.66   2.47    1  307    2  83.7 -99.9 1007.4 -9.9 -9.999 -99.9 -99.99 -9.99
2018/06/21 13:18 EDT    1.73   2.55    1  318    2  83.3 -99.9 1007.3 -9.9 -9.999 -99.9 -99.99 -9.99
2018/06/21 13:24 EDT    1.80   2.65    2  345    3  82.8 -99.9 1007.4 -9.9 -9.999 -99.9 -99.99 -9.99
2018/06/21 13:30 EDT    1.86   2.72    2    3    2  82.6 -99.9 1007.2 -9.9 -9.999 -99.9 -99.99 -9.99
2018/06/21 13:36 EDT    1.93   2.78    2   44    3  82.6 -99.9 1007.2 -9.9 -9.999 -99.9 -99.99 -9.99
2018/06/21 13:42 EDT    2.00   2.84    3   13    4  82.4 -99.9 1007.2 -9.9 -9.999 -99.9 -99.99 -9.99
2018/06/21 13:48 EDT    2.06   2.94    2   14    3  82.0 -99.9 1007.2 -9.9 -9.999 -99.9 -99.99 -9.99
2018/06/21 13:54 EDT    2.12   2.99    2   30    3  81.9 -99.9 1007.2 -9.9 -9.999 -99.9 -99.99 -9.99
2018/06/21 14:00 EDT    2.18   3.05    4   30    5  81.5 -99.9 1007.1 -9.9 -9.999 -99.9 -99.99 -9.99
2018/06/21 14:06 EDT    2.24   3.13    3   28    5  81.5 -99.9 1007.0 -9.9 -9.999 -99.9 -99.99 -9.99
2018/06/21 14:12 EDT    2.30   3.18    4   32    5  81.9 -99.9 1006.9 -9.9 -9.999 -99.9 -99.99 -9.99
2018/06/21 14:18 EDT    2.35   3.25    4   15    5  82.0 -99.9 1006.9 -9.9 -9.999 -99.9 -99.99 -9.99
2018/06/21 14:24 EDT    2.41   3.28    4   25    6  81.9 -99.9 1006.9 -9.9 -9.999 -99.9 -99.99 -9.99
2018/06/21 14:30 EDT    2.46   3.36    6   19    7  81.9 -99.9 1006.8 -9.9 -9.999 -99.9 -99.99 -9.99
2018/06/21 14:36 EDT    2.50   3.43    6   17    8  82.0 -99.9 1006.8 -9.9 -9.999 -99.9 -99.99 -9.99
2018/06/21 14:42 EDT    2.55   3.47    6   13    7  82.2 -99.9 1006.7 -9.9 -9.999 -99.9 -99.99 -9.99
2018/06/21 14:48 EDT    2.59   3.51    8   25    9  82.2 -99.9 1006.6 -9.9 -9.999 -99.9 -99.99 -9.99
2018/06/21 14:54 EDT    2.63   3.54    7   35    9  82.0 -99.9 1006.6 -9.9 -9.999 -99.9 -99.99 -9.99
2018/06/21 15:00 EDT    2.66   3.55    7   36    8  81.9 -99.9 1006.6 -9.9 -9.999 -99.9 -99.99 -9.99
2018/06/21 15:06 EDT    2.70   3.57    7   36    8  81.7 -99.9 1006.7 -9.9 -9.999 -99.9 -99.99 -9.99
2018/06/21 15:12 EDT    2.73   3.63    8   22    9  81.7 -99.9 1006.6 -9.9 -9.999 -99.9 -99.99 -9.99
2018/06/21 15:18 EDT    2.75   3.62    8   31    9  81.5 -99.9 1006.6 -9.9 -9.999 -99.9 -99.99 -9.99
2018/06/21 15:24 EDT    2.78 -99.99 -999 -999 -999 -99.9 -99.9 -999.9 -9.9 -9.999 -99.9 -99.99 -9.99
2018/06/21 15:30 EDT    2.80 -99.99 -999 -999 -999 -99.9 -99.9 -999.9 -9.9 -9.999 -99.9 -99.99 -9.99
2018/06/21 15:36 EDT    2.82 -99.99 -999 -999 -999 -99.9 -99.9 -999.9 -9.9 -9.999 -99.9 -99.99 -9.99

Revised: 10/15/2013
NOAA / National Ocean Service
Web site owner: Center for Operational Oceanographic Products and Services